Login

marco
5 activity; - Last training unit 09/04/2021
09/04/2021 Show to everybody Gola con Oscar 16.3 603 01:30:53 10.76 Km\h
08/04/2021 Show to everybody Crocione 19.52 919 01:33:11 12.57 Km\h
08/04/2021 Show to everybody Con Oscar 12.74 493 01:14:58 10.2 Km\h
07/04/2021 Show to everybody Arbostora 33.62 883 02:00:24 16.75 Km\h
06/04/2021 Show to everybody Afternoon Ride 10.66 305 01:01:48 10.34 Km\h
04/04/2021 Show to everybody Nuovo trail 12.91 697 01:11:05 10.9 Km\h
03/04/2021 Show to everybody Arosio ventoso 23.37 816 01:34:03 14.91 Km\h
02/04/2021 Show to everybody Arosio 23.41 803 01:32:31 15.18 Km\h
01/04/2021 Show to everybody Crocione 19.82 887 01:29:49 13.24 Km\h
30/03/2021 Show to everybody 8 bar basso Scalpel SE 30.49 1282 02:16:29 13.4 Km\h
29/03/2021 Show to everybody 8 basso 30.04 1290 02:17:54 13.07 Km\h
28/03/2021 Show to everybody Axel e Oscar 9.29 134 00:43:40 12.77 Km\h
26/03/2021 Show to everybody Crocione 19.45 902 01:30:56 12.83 Km\h
25/03/2021 Show to everybody Moschera 17.19 724 01:21:35 12.64 Km\h
24/03/2021 Show to everybody E un po' più in su... 21.84 1000 01:44:51 12.5 Km\h
23/03/2021 Show to everybody Gx axs 19.25 916 01:31:18 12.65 Km\h
21/03/2021 Show to everybody Arbostora 33.72 888 01:55:39 17.49 Km\h
20/03/2021 Show to everybody Arbostora 33.86 878 01:57:28 17.3 Km\h
18/03/2021 Show to everybody Alla ricerca del pezzo perduto 18.89 932 01:32:51 12.21 Km\h
16/03/2021 Show to everybody Vento 18.23 827 01:31:10 12 Km\h
15/03/2021 Show to everybody Crocione del lunedì 18.91 931 01:29:01 12.75 Km\h
13/03/2021 Show to everybody Crocione 4 18.99 915 01:31:49 12.41 Km\h
12/03/2021 Show to everybody Crocione 3 18.95 914 01:32:23 12.31 Km\h
11/03/2021 Show to everybody Crocione 2 19.56 917 01:39:45 11.76 Km\h
10/03/2021 Show to everybody Primo Crocione 2021 19.44 912 01:40:05 11.66 Km\h
08/03/2021 Show to everybody Long commute 27.2 964 02:05:29 13.01 Km\h
07/03/2021 Show to everybody Malcantone Switchblade 33.59 1026 02:20:35 14.34 Km\h
05/03/2021 Show to everybody Battesimo Switchblade 26.35 1075 02:06:18 12.52 Km\h
03/03/2021 Show to everybody Morning Activity 46.91 1429 03:24:28 13.76 Km\h
02/03/2021 Show to everybody Orbea 26.6 1074 02:00:34 13.24 Km\h
28/02/2021 Show to everybody Malcantone 34.13 1148 02:33:51 13.31 Km\h
27/02/2021 Show to everybody Afternoon Ride 16.39 593 01:15:00 13.11 Km\h
26/02/2021 Show to everybody Doppietta del venerdì 25.89 1065 02:05:13 12.4 Km\h Ibis Ripley
25/02/2021 Show to everybody Malcantone 49.28 1711 03:12:26 15.36 Km\h
24/02/2021 Show to everybody Rompiago 18.25 773 01:27:56 12.45 Km\h
23/02/2021 Show to everybody Crocione invernale 17.45 728 01:22:54 12.63 Km\h
22/02/2021 Show to everybody Doppietta 21.4 979 01:46:48 12.02 Km\h
21/02/2021 Show to everybody Con Oscar 13.56 503 01:24:30 9.63 Km\h
20/02/2021 Show to everybody Malcantone 41.15 1468 03:01:17 13.62 Km\h
18/02/2021 Show to everybody Carona 36.04 1071 02:09:44 16.67 Km\h
17/02/2021 Show to everybody Kids ride 16.23 647 01:43:27 9.41 Km\h GT Sanction 27.5
16/02/2021 Show to everybody Arbostora 33.29 888 02:05:00 15.98 Km\h
15/02/2021 Show to everybody Ice age 34.05 1028 02:15:19 15.1 Km\h
14/02/2021 Show to everybody Singlespeed 21.4 744 01:27:15 14.72 Km\h
12/02/2021 Show to everybody Afternoon Activity 14.14 624 00:53:21 15.9 Km\h
11/02/2021 Show to everybody Braghe corte 26.19 1094 02:07:14 12.35 Km\h
09/02/2021 Show to everybody Crocione invernale + 19.18 750 01:32:55 12.38 Km\h
08/02/2021 Show to everybody Trittico + 19.45 761 01:37:47 11.94 Km\h
06/02/2021 Show to everybody Tempo da lupi 16.05 702 01:25:52 11.21 Km\h
05/02/2021 Show to everybody Crocione invernale 21.04 882 01:33:16 13.53 Km\h
04/02/2021 Show to everybody Scampoli di primavera 33.07 983 02:13:23 14.88 Km\h
02/02/2021 Show to everybody psizzati sto caxxo 18.01 736 01:32:01 11.74 Km\h
01/02/2021 Show to everybody alpe 39.34 1158 01:30:41 26.03 Km\h
31/01/2021 Show to everybody Sunny arbostora 36.72 958 02:11:09 16.8 Km\h
29/01/2021 Show to everybody Bike & board windy 24.35 1109 02:10:42 11.18 Km\h
28/01/2021 Show to everybody Bike & board 25.37 1292 02:17:30 11.07 Km\h
26/01/2021 Show to everybody Experiment 42.04 2233 03:20:58 12.55 Km\h
25/01/2021 Show to everybody Mr. Crowley 14.48 651 01:17:08 11.26 Km\h
24/01/2021 Show to everybody Sunday relax 34.95 959 02:00:45 17.37 Km\h
23/01/2021 Show to everybody Oscar training 16.2 672 01:28:45 10.95 Km\h
22/01/2021 Show to everybody 1 lap 24.64 477 00:46:36 31.73 Km\h
20/01/2021 Show to everybody Cloudy laps 13.7 641 01:12:09 11.39 Km\h
19/01/2021 Show to everybody Sunny Onza laps 13.69 637 01:10:22 11.68 Km\h
18/01/2021 Show to everybody Sunny laps 20.08 978 01:50:22 10.92 Km\h
17/01/2021 Show to everybody Ghiaccio 31.04 792 01:38:32 18.9 Km\h
15/01/2021 Show to everybody Laps 13.12 604 01:07:45 11.62 Km\h
15/01/2021 Show to everybody Laps 13.12 604 01:07:45 11.62 Km\h
14/01/2021 Show to everybody Lunch Activity 9.34 364 00:40:54 13.7 Km\h
14/01/2021 Show to everybody Lunch Ride 15.57 561 00:57:43 16.19 Km\h
13/01/2021 Show to everybody Föhn 18.96 749 01:45:51 10.75 Km\h
12/01/2021 Show to everybody alpe 39.49 1162 01:35:33 24.8 Km\h
11/01/2021 Show to everybody Innsbruck 48.2 953 01:41:04 28.61 Km\h
08/01/2021 Show to everybody Bike board 2 38.2 1403 03:40:29 10.39 Km\h
07/01/2021 Show to everybody Bike & snow 28.93 1303 03:39:04 7.92 Km\h
05/01/2021 Show to everybody titans 56.58 448 01:34:42 35.84 Km\h
04/01/2021 Show to everybody antenna 33.22 625 01:07:11 29.67 Km\h
03/01/2021 Show to everybody Alpe 39.32 1158 01:33:12 25.31 Km\h
02/01/2021 Show to everybody Monte Ferraro 13.25 541 03:33:05 3.73 Km\h
31/12/2020 Show to everybody Arbostora snow 31.16 808 02:14:09 13.93 Km\h
30/12/2020 Show to everybody level 15 73.17 541 02:05:38 34.95 Km\h
29/12/2020 Show to everybody quickie 32.99 625 01:04:25 30.73 Km\h
28/12/2020 Show to everybody rineve 39.27 1158 01:29:34 26.31 Km\h
26/12/2020 Show to everybody Kids ride 15.11 547 01:43:41 8.75 Km\h
25/12/2020 Show to everybody Xmas ride 34.61 809 02:15:34 15.32 Km\h
23/12/2020 Show to everybody Giret 24.5 1108 01:54:06 12.88 Km\h
22/12/2020 Show to everybody Bigorio laps 19.63 794 01:37:45 12.05 Km\h
21/12/2020 Show to everybody Solstizio d’inverno scivoloso 24.43 988 02:05:52 11.64 Km\h
19/12/2020 Show to everybody Kids ride 13.61 444 01:17:40 10.51 Km\h
18/12/2020 Show to everybody Test loops 15.75 566 01:21:18 11.62 Km\h
17/12/2020 Show to everybody Test loops part 2 7.8 307 00:46:22 10.09 Km\h
17/12/2020 Show to everybody Test loops part 1 7.93 364 00:40:17 11.81 Km\h
16/12/2020 Show to everybody Baldo 49.1 1571 03:44:29 13.12 Km\h
15/12/2020 Show to everybody Epic 122 25.62 968 02:24:38 10.63 Km\h
13/12/2020 Show to everybody ventoux 44.44 1530 01:46:11 25.11 Km\h
11/12/2020 Show to everybody run to the hills 39.36 1157 01:31:48 25.73 Km\h
10/12/2020 Show to everybody The end of the road 15.72 559 00:53:04 17.77 Km\h
09/12/2020 Show to everybody ventoux 44.56 1530 01:53:06 23.64 Km\h
08/12/2020 Show to everybody Watopia 48.77 807 01:32:14 31.73 Km\h
07/12/2020 Show to everybody Watopia 31.85 1052 01:13:56 25.85 Km\h
03/12/2020 Show to everybody Traversata con la neve 39.08 1313 03:35:26 10.88 Km\h
01/12/2020 Show to everybody L’estate è finita 15.48 568 01:14:54 12.4 Km\h
30/11/2020 Show to everybody Sopra le nuvole 25.13 1133 02:06:42 11.9 Km\h
27/11/2020 Show to everybody Traversata del venerdì 37.97 1280 02:57:19 12.85 Km\h
26/11/2020 Show to everybody Lunch Ride 16.18 603 01:16:36 12.68 Km\h
25/11/2020 Show to everybody Crocione 19.56 906 01:35:29 12.29 Km\h
24/11/2020 Show to everybody Traversata del buon samaritano 38.18 1282 02:48:33 13.59 Km\h
23/11/2020 Show to everybody Baro nord 22.55 1051 01:53:25 11.93 Km\h
21/11/2020 Show to everybody Carona 36.18 889 01:30:32 23.98 Km\h
20/11/2020 Show to everybody Föhn 17.2 692 01:23:35 12.35 Km\h
19/11/2020 Show to everybody Traversata del giovedì 51.54 1994 04:07:15 12.51 Km\h
18/11/2020 Show to everybody 8 Bar 32.71 1335 02:21:30 13.87 Km\h
17/11/2020 Show to everybody Afternoon Activity 29.18 1133 01:36:40 18.11 Km\h
16/11/2020 Show to everybody Traversata ventosa del lunedì 37.73 1269 02:53:48 13.03 Km\h
14/11/2020 Show to everybody Carona 36.21 879 01:30:22 24.04 Km\h
13/11/2020 Show to everybody Baro nord 22.72 1066 01:53:52 11.97 Km\h
12/11/2020 Show to everybody Traversata in compagnia 41.93 1580 03:39:31 11.46 Km\h
11/11/2020 Show to everybody Crocione 19.7 903 01:32:10 12.83 Km\h
10/11/2020 Show to everybody Traversata del martedì 37.73 1260 02:47:20 13.53 Km\h
08/11/2020 Show to everybody Tamarrata di fine stagione 25.96 603 02:04:46 12.49 Km\h
08/11/2020 Show to everybody Lunch Ride 19.44 224 00:58:28 19.95 Km\h
07/11/2020 Show to everybody Tamarrata 20.78 190 01:30:18 13.81 Km\h
07/11/2020 Show to everybody Afternoon Ride 19.16 224 01:00:25 19.03 Km\h
05/11/2020 Show to everybody Traversata della liberazione 61.91 1937 04:27:47 13.87 Km\h
03/11/2020 Show to everybody Active Offseason - Cadence & Tempo 43.4 971 01:53:35 22.92 Km\h
02/11/2020 Show to everybody Active Offseason - Endurance 50.2 961 01:50:29 27.26 Km\h
01/11/2020 Show to everybody Active Offseason - Progressive Over-Gear 50.38 962 01:47:04 28.23 Km\h
31/10/2020 Show to everybody Active Offseason - High-Cadence Into Standing 34.51 311 01:04:11 32.26 Km\h
30/10/2020 Show to everybody Active Offseason - Sub-Threshold Over-Gear 37.53 280 01:10:28 31.96 Km\h
28/10/2020 Show to everybody Tamarrata invernale 23.69 525 01:56:05 12.24 Km\h
28/10/2020 Show to everybody Afternoon Ride 12.18 155 00:37:39 19.41 Km\h
27/10/2020 Show to everybody Baro con bidet 27.05 1191 02:14:30 12.07 Km\h
25/10/2020 Show to everybody Malcantone 23.44 816 01:42:42 13.69 Km\h
24/10/2020 Show to everybody Arbostora 33.78 872 02:09:08 15.69 Km\h
22/10/2020 Show to everybody Baro de novo 22.04 1048 01:53:34 11.64 Km\h
21/10/2020 Show to everybody Baro Nord 22.03 1049 01:49:58 12.02 Km\h
20/10/2020 Show to everybody Valcolla schivando i ricci 31.13 1029 01:32:47 20.13 Km\h
19/10/2020 Show to everybody Sbüsà (aerothan che si bucano coi ricci, mah...) 18.67 634 01:04:29 17.37 Km\h
18/10/2020 Show to everybody Lunch Ride 18.9 225 00:57:54 19.58 Km\h
18/10/2020 Show to everybody Tamarrata innevata 23.44 530 01:49:14 12.88 Km\h
16/10/2020 Show to everybody Baro nord short 22.09 1050 01:45:08 12.61 Km\h
14/10/2020 Show to everybody Afternoon Activity 16.58 577 00:59:48 16.63 Km\h
14/10/2020 Show to everybody Allmtn 7 vid Tamarrata 23.48 515 01:24:52 16.6 Km\h
13/10/2020 Show to everybody Traversata del martedì 38.34 1270 02:51:33 13.41 Km\h
12/10/2020 Show to everybody Crocione ventoso 19.43 912 01:35:55 12.16 Km\h
10/10/2020 Show to everybody Arbostora castagne che piovono 31.1 793 01:51:36 16.72 Km\h
09/10/2020 Show to everybody Tamarrata Castagnata SJ 23.95 522 01:46:56 13.44 Km\h
09/10/2020 Show to everybody Afternoon Ride 19 224 00:56:06 20.32 Km\h
08/10/2020 Show to everybody Traversata SJ 39.02 1252 02:51:58 13.61 Km\h
07/10/2020 Show to everybody Valcolla 31.37 990 01:31:55 20.48 Km\h
06/10/2020 Show to everybody Piandanazzo umidezza 30.33 1177 02:15:06 13.47 Km\h
05/10/2020 Show to everybody Acqua alta 37.75 1245 02:27:16 15.38 Km\h
04/10/2020 Show to everybody Arosio 28.86 983 02:03:58 13.97 Km\h
03/10/2020 Show to everybody Arbostora 30.96 797 01:58:27 15.68 Km\h
01/10/2020 Show to everybody Crocione prima del monsone 19.42 892 01:37:27 11.96 Km\h
30/09/2020 Show to everybody Corona dei pinci 24.93 1093 02:16:10 10.99 Km\h
29/09/2020 Show to everybody Tamarrata 22.64 426 01:46:40 12.74 Km\h
29/09/2020 Show to everybody Afternoon Ride 7.21 111 00:24:32 17.62 Km\h
28/09/2020 Show to everybody Syntace wheels and Tamaro don't fit together 40.3 1536 01:59:10 20.29 Km\h
27/09/2020 Show to everybody Tempo pazzuriello 29.94 962 01:24:27 21.27 Km\h
26/09/2020 Show to everybody L’estate sta finendo 36.11 870 01:31:05 23.78 Km\h
24/09/2020 Show to everybody Valcolla autunnale 33.89 1021 01:39:35 20.42 Km\h
23/09/2020 Show to everybody 8 Bar 32.4 1319 02:38:40 12.25 Km\h
21/09/2020 Show to everybody Valcolla umidiccia 31.18 998 01:33:34 20 Km\h
19/09/2020 Show to everybody Airolo con Oscar 3.36 3 00:11:38 17.33 Km\h
18/09/2020 Show to everybody Tamarrata 25.57 606 02:00:22 12.74 Km\h
18/09/2020 Show to everybody Morning Ride 18.92 221 01:01:37 18.42 Km\h
17/09/2020 Show to everybody Gries 50.78 1888 04:05:34 12.41 Km\h
16/09/2020 Show to everybody Sassate sulle ginocchia con Manuel 23.38 1073 01:58:24 11.85 Km\h
15/09/2020 Show to everybody Valcolla chill 32.71 1083 01:39:29 19.72 Km\h
14/09/2020 Show to everybody Speed video 49.28 1433 02:05:23 23.58 Km\h
13/09/2020 Show to everybody Tamarrata 23.98 501 02:19:39 10.3 Km\h
13/09/2020 Show to everybody Afternoon Ride 13.26 177 00:41:12 19.31 Km\h
12/09/2020 Show to everybody Valcolla 47.99 1109 02:01:20 23.73 Km\h
10/09/2020 Show to everybody Prova nuovi sentieri val Bedretto 48.99 1817 04:18:59 11.35 Km\h
09/09/2020 Show to everybody Sighignola 71.43 1474 02:54:49 24.52 Km\h
08/09/2020 Show to everybody Tamarrata 22.37 413 01:45:42 12.7 Km\h
08/09/2020 Show to everybody Afternoon Ride 7.52 114 00:24:57 18.07 Km\h
07/09/2020 Show to everybody 6.2 31.14 983 01:29:34 20.86 Km\h
06/09/2020 Show to everybody Con Oscar 30.83 693 02:29:01 12.41 Km\h
04/09/2020 Show to everybody Gries 37.46 884 02:58:27 12.59 Km\h
03/09/2020 Show to everybody Tamarrata 23.32 511 01:48:45 12.87 Km\h
03/09/2020 Show to everybody Afternoon Ride 12.64 204 00:47:34 15.94 Km\h
02/09/2020 Show to everybody Neuron 16.86 675 01:20:08 12.62 Km\h
01/09/2020 Show to everybody Traversata con Stoll 42.16 1423 03:26:17 12.26 Km\h
31/08/2020 Show to everybody Skipping the rain 20.43 911 01:46:05 11.56 Km\h
30/08/2020 Show to everybody post monsone 35.97 848 01:30:06 23.95 Km\h
27/08/2020 Show to everybody Tamarrata 24.97 620 01:49:12 13.72 Km\h
27/08/2020 Show to everybody Lunch Ride 12.47 202 00:51:30 14.53 Km\h
26/08/2020 Show to everybody Airolo 3.6 9 00:12:57 16.67 Km\h
21/08/2020 Show to everybody Luzzone 17.63 814 01:43:16 10.24 Km\h
21/08/2020 Show to everybody Passo del Sole 25.02 402 02:06:50 11.84 Km\h
19/08/2020 Show to everybody Traversata del mercoledì 39.16 1207 02:51:44 13.68 Km\h
18/08/2020 Show to everybody Tamarrata 22.08 407 01:37:35 13.58 Km\h
17/08/2020 Show to everybody Lupus in fabula 19.45 876 01:32:51 12.57 Km\h
16/08/2020 Show to everybody Malcantone II 29.24 896 01:20:39 21.75 Km\h
15/08/2020 Show to everybody Malcantone di Ferragosto. Hanno aperto le gabbie 29.24 888 01:23:46 20.95 Km\h
14/08/2020 Show to everybody Valcolla 45.17 1021 01:50:00 24.64 Km\h
12/08/2020 Show to everybody Esperimentando 60.87 1240 05:27:11 11.16 Km\h
11/08/2020 Show to everybody Carona 35.93 845 01:32:51 23.22 Km\h
10/08/2020 Show to everybody Canicola 40.22 1319 02:41:17 14.96 Km\h
09/08/2020 Show to everybody Valcolla 43.81 985 01:52:58 23.27 Km\h
08/08/2020 Show to everybody Livigno day 5 4.66 0 00:13:08 21.29 Km\h
07/08/2020 Show to everybody Livigno day 4 4.59 0 00:11:44 23.47 Km\h
06/08/2020 Show to everybody Livigno day 3 10.54 2 00:29:57 21.12 Km\h
05/08/2020 Show to everybody Livigno day 2 9.12 7 00:35:44 15.31 Km\h
04/08/2020 Show to everybody Livigno day 1 3.83 7 00:10:29 21.95 Km\h
02/08/2020 Show to everybody Tamarrata con torta e sambuco 24.82 603 01:44:20 14.27 Km\h
02/08/2020 Show to everybody Morning Ride 18.9 212 00:59:55 18.92 Km\h
31/07/2020 Show to everybody Morning Ride 12.47 237 00:46:19 16.16 Km\h
30/07/2020 Show to everybody Trittico alpino col Gesa 99.72 2881 04:30:20 22.13 Km\h
29/07/2020 Show to everybody Morning Ride 27.32 606 01:36:50 16.93 Km\h
29/07/2020 Show to everybody Morning Ride 19.29 214 00:57:06 20.26 Km\h
28/07/2020 Show to everybody Nuova Tarmac oggi su bdc-mag.com ore 18:00 47.21 1099 02:01:50 23.25 Km\h
27/07/2020 Show to everybody Malcantone 29.64 926 01:27:37 20.3 Km\h
25/07/2020 Show to everybody Dolomiti 124.04 3048 04:36:27 26.92 Km\h
23/07/2020 Show to everybody Piz Umbrail 39.44 809 03:30:57 11.22 Km\h
22/07/2020 Show to everybody Madritschjoch 36.15 617 03:19:26 10.88 Km\h
21/07/2020 Show to everybody Stelvio bagnato 67.33 2424 03:10:53 21.16 Km\h
21/07/2020 Show to everybody Stelvio bagnato 67.33 2424 03:10:53 21.16 Km\h
20/07/2020 Show to everybody Trittico alpino 102.02 2996 04:41:10 21.77 Km\h
19/07/2020 Show to everybody Passo del Sole 24.36 515 02:04:59 11.69 Km\h
17/07/2020 Show to everybody Trittico luganese 102.03 2522 04:24:05 23.18 Km\h
16/07/2020 Show to everybody Tamarrata 22.93 488 01:40:44 13.65 Km\h
16/07/2020 Show to everybody Morning Ride 18.79 210 00:57:24 19.64 Km\h
15/07/2020 Show to everybody Carona 35.82 856 01:33:03 23.1 Km\h
14/07/2020 Show to everybody Till the end of the tarmac 41.1 1362 01:55:28 21.36 Km\h
13/07/2020 Show to everybody Crocione 19.65 909 01:38:15 12 Km\h
12/07/2020 Show to everybody Lap2 8.58 341 00:40:51 12.61 Km\h
12/07/2020 Show to everybody Lap1 9.2 344 00:43:15 12.76 Km\h
11/07/2020 Show to everybody AperoXC 46.5 1195 02:47:53 16.62 Km\h
10/07/2020 Show to everybody La donna del Cusello 24.81 950 02:00:33 12.35 Km\h
09/07/2020 Show to everybody Tamarrata assolata 24.89 572 01:54:12 13.08 Km\h
09/07/2020 Show to everybody Morning Ride 18.9 214 00:56:59 19.9 Km\h
07/07/2020 Show to everybody ZEB 11.27 150 00:33:49 19.99 Km\h
07/07/2020 Show to everybody Afternoon Ride 3.47 0 00:10:32 19.78 Km\h
06/07/2020 Show to everybody Lenze 19.15 689 01:17:51 14.76 Km\h
03/07/2020 Show to everybody Traversata parte 1 35.84 1478 02:50:15 12.63 Km\h
03/07/2020 Show to everybody Parte 2 9.78 1 00:30:26 19.27 Km\h
01/07/2020 Show to everybody Umidità a fette 30.7 712 01:47:09 17.19 Km\h
30/06/2020 Show to everybody Lunch Ride 18.85 212 00:57:35 19.64 Km\h
30/06/2020 Show to everybody Tamarrata del martedì 24.92 569 01:53:15 13.2 Km\h
28/06/2020 Show to everybody Tamarrata no brakes 22.76 477 01:45:09 12.99 Km\h
28/06/2020 Show to everybody Morning Ride 18.94 218 00:57:46 19.67 Km\h
24/06/2020 Show to everybody Paganella with the kids day 3 4.49 1 00:13:25 20.07 Km\h
23/06/2020 Show to everybody Paganella with the kids day 2 7.35 5 00:25:27 17.33 Km\h
22/06/2020 Show to everybody Paganella with the kids day 1 7.2 1 00:22:00 19.63 Km\h
19/06/2020 Show to everybody Tamarrata spettacolo 22.85 487 01:38:43 13.89 Km\h
19/06/2020 Show to everybody Afternoon Ride 11.78 150 00:42:11 16.75 Km\h
18/06/2020 Show to everybody Epic video 34.64 1175 02:24:30 14.39 Km\h
16/06/2020 Show to everybody Fuga dal temporale 23.6 487 01:24:42 16.72 Km\h
16/06/2020 Show to everybody Afternoon Ride 11.8 162 00:38:25 18.44 Km\h
15/06/2020 Show to everybody Traversata del lunedì 37.54 1190 02:37:33 14.3 Km\h
14/06/2020 Show to everybody Lunch Ride 18.78 209 01:01:43 18.26 Km\h
14/06/2020 Show to everybody Sana e dolce Tamarrata 23.63 485 01:45:04 13.49 Km\h
13/06/2020 Show to everybody Afternoon Ride 3.33 0 00:14:17 13.98 Km\h
13/06/2020 Show to everybody Afternoon Ride 3.38 0 00:12:35 16.14 Km\h
13/06/2020 Show to everybody Afternoon Ride 3.44 0 00:15:27 13.34 Km\h
13/06/2020 Show to everybody Afternoon Ride 2.7 0 00:12:16 13.21 Km\h
12/06/2020 Show to everybody 8 Bar 31.8 1293 02:17:07 13.91 Km\h
10/06/2020 Show to everybody I sentieruscelli con doccia finale 23.14 992 01:40:06 13.87 Km\h
09/06/2020 Show to everybody Moscherata acqua da sotto 17.12 702 01:26:59 11.81 Km\h
08/06/2020 Show to everybody Acqua 28.64 1104 01:56:00 14.81 Km\h
06/06/2020 Show to everybody Tamarrata 22.71 497 01:48:38 12.55 Km\h
06/06/2020 Show to everybody Morning Ride 18.92 213 01:04:35 17.57 Km\h
05/06/2020 Show to everybody 8 Bar downcountry 32.19 1278 02:23:31 13.46 Km\h
03/06/2020 Show to everybody Boglia fa solo venire voglia 31.28 1005 02:19:19 13.47 Km\h
02/06/2020 Show to everybody Gesero 37.73 1402 03:04:20 12.28 Km\h
01/06/2020 Show to everybody Ex albero fulminato mon amour 35.67 1348 02:46:34 12.85 Km\h
30/05/2020 Show to everybody Albero fulminato 35.6 1353 02:52:07 12.41 Km\h
28/05/2020 Show to everybody Commute back home, the long way 47.52 1761 04:02:02 11.78 Km\h
27/05/2020 Show to everybody Traversata del mercoledì 38.95 1384 03:02:55 12.78 Km\h
27/05/2020 Show to everybody Carta velina 2.74 60 00:17:59 9.13 Km\h
26/05/2020 Show to everybody Afternoon Ride 19.38 878 01:19:29 14.63 Km\h
25/05/2020 Show to everybody Traversata del lunedì 38.71 1193 02:36:28 14.85 Km\h
24/05/2020 Show to everybody Arbostora Downcountry 45.62 1236 02:37:53 17.34 Km\h
23/05/2020 Show to everybody Kid’s getting fast 11.57 247 00:52:50 13.14 Km\h
22/05/2020 Show to everybody Downcountry royale 42.68 1495 03:16:27 13.04 Km\h
21/05/2020 Show to everybody Laps with the kids 12.6 426 01:34:33 8 Km\h
20/05/2020 Show to everybody 27 km no-stop trail 41.41 1453 03:17:05 12.61 Km\h
19/05/2020 Show to everybody Xc del martedì 41.14 1419 02:53:57 14.19 Km\h
18/05/2020 Show to everybody Giretto del lunedì 46.86 1825 03:26:30 13.62 Km\h
15/05/2020 Show to everybody Acqua da sotto 16.36 692 01:20:08 12.25 Km\h
14/05/2020 Show to everybody Doppia traversata del giovedì 46.63 1482 03:27:49 13.46 Km\h
12/05/2020 Show to everybody Xc mattutino 30.6 717 01:43:32 17.73 Km\h
10/05/2020 Show to everybody Lunch Ride 22.94 799 01:39:16 13.86 Km\h
09/05/2020 Show to everybody Torello trails xc 42.98 1245 02:50:24 15.13 Km\h
08/05/2020 Show to everybody Laps with the kids 12.59 463 01:14:11 10.19 Km\h
07/05/2020 Show to everybody Uscita sociale 39.55 1303 02:48:05 14.12 Km\h
07/05/2020 Show to everybody Quickie 10.47 238 00:41:49 15.03 Km\h
05/05/2020 Show to everybody Anticima Baro 22.62 1100 01:52:42 12.04 Km\h
04/05/2020 Show to everybody Monday relax 39.7 1322 02:39:00 14.98 Km\h Santacruz Bronson C
03/05/2020 Show to everybody Laps with the kids 13.42 420 01:36:28 8.34 Km\h
03/05/2020 Show to everybody Kaiserwetter 24.4 832 01:37:15 15.05 Km\h
02/05/2020 Show to everybody Albero fulminato 39.17 1411 02:57:26 13.25 Km\h
30/04/2020 Show to everybody Ochain vid 13.75 652 01:13:17 11.25 Km\h
29/04/2020 Show to everybody Baro Nord 30.55 1263 02:26:45 12.49 Km\h
27/04/2020 Show to everybody Moschera 16.78 738 01:23:32 12.06 Km\h
26/04/2020 Show to everybody Lazy Sunday 22.12 856 01:19:13 16.75 Km\h
25/04/2020 Show to everybody Tutti frutti 43.6 1615 03:18:50 13.16 Km\h
23/04/2020 Show to everybody San Lucio 37.56 1283 02:57:30 12.7 Km\h
22/04/2020 Show to everybody Esperimento 21.5 714 01:30:00 14.33 Km\h
19/04/2020 Show to everybody Valcolla bitumiera 43.69 964 01:50:37 23.7 Km\h
18/04/2020 Show to everybody Galfer 21.47 691 01:29:47 14.35 Km\h
17/04/2020 Show to everybody (N)Ochain 19.33 893 01:32:53 12.49 Km\h
16/04/2020 Show to everybody Video Cubica 19.35 591 01:31:14 12.73 Km\h
15/04/2020 Show to everybody Crocione 19.36 920 01:35:31 12.16 Km\h
13/04/2020 Show to everybody Kids ride 16.1 424 01:20:49 11.96 Km\h
12/04/2020 Show to everybody Giro pasquale 35.65 819 01:35:24 22.42 Km\h
11/04/2020 Show to everybody Pian Cusello 39.93 1427 03:10:50 12.56 Km\h
09/04/2020 Show to everybody S. Lucio prima traversata 2020 40.76 1360 03:05:09 13.21 Km\h
08/04/2020 Show to everybody 8 bar cubista 32.1 1299 02:26:37 13.14 Km\h
07/04/2020 Show to everybody Ex albero fulminato 34.65 1278 02:37:36 13.19 Km\h
06/04/2020 Show to everybody 38 19.37 905 01:35:41 12.15 Km\h
04/04/2020 Show to everybody Arosio 21.75 743 01:30:19 14.45 Km\h
03/04/2020 Show to everybody Sgambada 21.6 742 01:31:27 14.17 Km\h
02/04/2020 Show to everybody Crocione 19.29 922 01:32:51 12.47 Km\h
01/04/2020 Show to everybody Moschera 16.59 720 01:24:12 11.82 Km\h
31/03/2020 Show to everybody Rocky 21.67 768 01:33:18 13.93 Km\h
29/03/2020 Show to everybody Nuova variante Manno 21.64 714 01:28:41 14.64 Km\h
28/03/2020 Show to everybody Agra 25.21 833 01:44:42 14.45 Km\h
27/03/2020 Show to everybody Moschera 16.51 700 01:18:51 12.56 Km\h
26/03/2020 Show to everybody Agra 25.69 880 01:56:43 13.21 Km\h
24/03/2020 Show to everybody Agra 25.15 880 01:50:20 13.68 Km\h
23/03/2020 Show to everybody Freddo 16.53 728 01:22:01 12.09 Km\h
21/03/2020 Show to everybody Collina d’oro kids 16.95 472 01:26:01 11.82 Km\h
20/03/2020 Show to everybody Social distancing 25.45 880 01:51:57 13.64 Km\h
19/03/2020 Show to everybody Collina d’oro kids 14.8 401 01:31:27 9.71 Km\h
18/03/2020 Show to everybody La decrescita infelice 25.64 1045 02:00:42 12.74 Km\h
17/03/2020 Show to everybody Crocione 19.1 900 01:28:34 12.94 Km\h
16/03/2020 Show to everybody SID 19.41 911 01:34:45 12.29 Km\h
13/03/2020 Show to everybody Crocione 18.95 900 01:36:51 11.74 Km\h
12/03/2020 Show to everybody Magped 13.09 604 01:07:41 11.6 Km\h
11/03/2020 Show to everybody Doppietta del mercoledì 22.74 933 01:49:09 12.5 Km\h
09/03/2020 Show to everybody Gola 18.74 714 01:34:39 11.88 Km\h
06/03/2020 Show to everybody SB150 vs Switchblade 16.19 780 01:25:09 11.41 Km\h
05/03/2020 Show to everybody Biznatch 13.94 620 01:08:22 12.24 Km\h
04/03/2020 Show to everybody Bigorio trails 21.29 999 01:54:40 11.14 Km\h
03/03/2020 Show to everybody Neve 17.38 648 01:34:49 11 Km\h
01/03/2020 Show to everybody Apres Ski 29 973 01:32:39 18.78 Km\h
21/02/2020 Show to everybody Lunch Ride 21.85 1099 01:40:21 13.06 Km\h
20/02/2020 Show to everybody Afternoon Ride 14.11 609 01:06:21 12.76 Km\h
19/02/2020 Show to everybody Lunch Ride 17.02 679 01:19:13 12.89 Km\h
18/02/2020 Show to everybody Doppietta del martedì 25.85 1064 02:00:54 12.83 Km\h
17/02/2020 Show to everybody Apres ski 16.5 720 01:21:11 12.2 Km\h
14/02/2020 Show to everybody Moschera 16.6 704 01:18:41 12.66 Km\h
13/02/2020 Show to everybody Ghiaia da bici 23.26 821 01:19:50 17.48 Km\h
12/02/2020 Show to everybody Giro post Knot 15.94 587 01:16:22 12.52 Km\h
11/02/2020 Show to everybody Doppietta primavera 26.86 1097 02:06:01 12.79 Km\h
10/02/2020 Show to everybody Ciao Sturm 22.62 1148 01:58:16 11.48 Km\h
07/02/2020 Show to everybody Venerdì 16.69 713 01:16:49 13.03 Km\h
06/02/2020 Show to everybody Bici da ghiaia 23 818 01:20:44 17.09 Km\h
05/02/2020 Show to everybody Vento feroce 15.98 604 01:12:38 13.2 Km\h
04/02/2020 Show to everybody Frescura dopo la calura 16.6 704 01:20:03 12.44 Km\h
03/02/2020 Show to everybody 20 gradi 16.5 674 01:22:16 12.03 Km\h
02/02/2020 Show to everybody Quickie domenicale 14.61 594 01:05:13 13.44 Km\h
31/01/2020 Show to everybody Moscherata 16.51 696 01:19:15 12.5 Km\h
30/01/2020 Show to everybody Crocione 19.32 924 01:36:08 12.06 Km\h
29/01/2020 Show to everybody Moschera 17.1 700 01:22:59 12.36 Km\h
27/01/2020 Show to everybody Gemini 16.44 709 01:21:06 12.16 Km\h
24/01/2020 Show to everybody Biobiker day 15.74 700 01:17:15 12.22 Km\h
23/01/2020 Show to everybody Epic trail series 17.44 504 01:25:31 12.23 Km\h
22/01/2020 Show to everybody Pettinato 17.13 706 01:20:54 12.71 Km\h
21/01/2020 Show to everybody Rinfresca 💡 16.35 713 00:38:41 25.37 Km\h
20/01/2020 Show to everybody I segreti di pulcinella 17.34 733 01:23:45 12.42 Km\h
17/01/2020 Show to everybody Lunch Ride 17.04 728 01:21:47 12.5 Km\h
16/01/2020 Show to everybody Bio 16.39 725 01:16:00 12.94 Km\h
14/01/2020 Show to everybody frescura 16.51 733 01:22:47 11.97 Km\h
13/01/2020 Show to everybody ice age 19.46 928 01:35:19 12.25 Km\h
09/01/2020 Show to everybody Bio 16.83 727 01:20:54 12.48 Km\h
08/01/2020 Show to everybody Moschera 16.32 720 01:18:02 12.55 Km\h
07/01/2020 Show to everybody Gola 16.39 722 01:19:02 12.44 Km\h
06/01/2020 Show to everybody Boglia che voglia 36.28 1422 02:34:33 14.09 Km\h
05/01/2020 Show to everybody Quaterna 19.89 918 01:32:07 12.96 Km\h
04/01/2020 Show to everybody L'inverno sta finendo 21.41 998 01:47:34 11.94 Km\h
02/01/2020 Show to everybody Blue sky 19.59 920 01:40:56 11.64 Km\h
01/01/2020 Show to everybody Happy 2020! 19.77 912 01:39:07 11.97 Km\h
30/12/2019 Show to everybody Afternoon Ride 22.05 736 01:33:12 14.2 Km\h
28/12/2019 Show to everybody Quickie 20.26 772 01:07:46 17.94 Km\h
27/12/2019 Show to everybody Malcantone 29.85 921 01:31:05 19.67 Km\h
26/12/2019 Show to everybody Arbostora 31.19 779 02:07:26 14.68 Km\h
25/12/2019 Show to everybody Xmas ride 22.15 726 01:34:25 14.08 Km\h
23/12/2019 Show to everybody Escilo 25.45 838 01:51:10 13.74 Km\h
21/12/2019 Show to everybody Solstizio d’inverno 35.74 918 01:41:52 21.05 Km\h
20/12/2019 Show to everybody Rain, day 5 10.68 227 00:36:46 17.43 Km\h
18/12/2019 Show to everybody Afternoon Activity 10.66 229 00:31:10 20.52 Km\h
17/12/2019 Show to everybody The technical and rainy way home 10.85 228 00:37:19 17.44 Km\h
16/12/2019 Show to everybody Pioggia 18.88 912 01:24:41 13.38 Km\h
12/12/2019 Show to everybody To the beach 🏖 2 9.97 6 00:40:06 14.92 Km\h
12/12/2019 Show to everybody To the beach 7.18 34 00:27:48 15.5 Km\h
12/12/2019 Show to everybody La palma sud 12.6 280 01:06:49 11.31 Km\h
11/12/2019 Show to everybody La Palma 21.69 582 01:07:20 19.33 Km\h
11/12/2019 Show to everybody Lunch Ride 7.38 1 00:26:58 16.42 Km\h
11/12/2019 Show to everybody Morning Ride 6.89 22 00:30:28 13.57 Km\h
09/12/2019 Show to everybody Panoramaus 15.75 677 01:18:11 12.08 Km\h
08/12/2019 Show to everybody Carona domenicale 35.61 922 01:35:49 22.3 Km\h
06/12/2019 Show to everybody Discesa per di qua 21.73 974 01:43:35 12.59 Km\h
05/12/2019 Show to everybody Repeat 25.24 1103 02:10:52 11.57 Km\h
04/12/2019 Show to everybody Bar libidine 24.96 1099 02:02:58 12.18 Km\h
03/12/2019 Show to everybody Moschera 16.37 672 01:19:14 12.39 Km\h
02/12/2019 Show to everybody Te la dó io la fat 25.51 900 01:34:54 16.13 Km\h
30/11/2019 Show to everybody Carona 36.05 921 01:32:16 23.45 Km\h
29/11/2019 Show to everybody CrocionHauser 19.27 906 01:43:17 11.19 Km\h
28/11/2019 Show to everybody Crocione quasi senza più neve 22.57 992 01:48:45 12.45 Km\h
26/11/2019 Show to everybody Bar gravel 28.78 1035 01:40:16 17.23 Km\h
25/11/2019 Show to everybody Dopo il diluvio 19.11 899 01:44:11 11 Km\h
20/11/2019 Show to everybody Doppietta del mercoledì 25.68 1060 02:08:05 12.03 Km\h
18/11/2019 Show to everybody Neve & Acqua 14.09 609 01:13:33 11.49 Km\h
18/11/2019 Show to everybody Neve & acqua 14.09 609 01:13:33 11.49 Km\h
14/11/2019 Show to everybody Prima della neve 15.45 613 01:14:03 12.52 Km\h
13/11/2019 Show to everybody Battesimo 15.72 585 01:16:15 12.37 Km\h
12/11/2019 Show to everybody Arriva l’inverno 14.03 605 01:07:54 12.4 Km\h
11/11/2019 Show to everybody Lunch Ride 27.68 918 01:22:23 20.16 Km\h
10/11/2019 Show to everybody Giro del monte post raffreddore 30.57 566 01:16:01 24.13 Km\h
04/11/2019 Show to everybody Crocione 19.08 893 01:33:06 12.29 Km\h
31/10/2019 Show to everybody Spooky ride 15.28 539 01:07:06 13.66 Km\h
29/10/2019 Show to everybody Quando lasci a casa la camera d’aria 14.19 592 01:18:58 10.78 Km\h
28/10/2019 Show to everybody Crocione nuvolone 19.26 894 01:28:42 13.03 Km\h
27/10/2019 Show to everybody Con Axel e Oscar 19.7 374 01:43:49 11.39 Km\h
25/10/2019 Show to everybody Dosso dei Roveri 35.18 1286 02:31:55 13.89 Km\h
23/10/2019 Show to everybody Gola 15.97 589 01:16:23 12.54 Km\h
22/10/2019 Show to everybody Traversata dopo il monsone 37.68 1207 02:49:17 13.35 Km\h
18/10/2019 Show to everybody Traversata pre monsone 37.51 1221 02:43:03 13.8 Km\h
17/10/2019 Show to everybody Afternoon Ride 15.7 566 01:11:12 13.23 Km\h
16/10/2019 Show to everybody Scott-Traversata 42.21 1085 03:31:36 11.97 Km\h
15/10/2019 Show to everybody Scott wet ride 21.51 365 01:30:42 14.23 Km\h
14/10/2019 Show to everybody Waiting for the Scott guys 16.63 595 01:13:45 13.53 Km\h
14/10/2019 Show to everybody Scott sunset ride 11.06 29 00:37:25 17.73 Km\h
13/10/2019 Show to everybody Con Oscar 9.09 318 01:02:22 8.75 Km\h
11/10/2019 Show to everybody 8 Bar 40.17 1692 03:01:17 13.3 Km\h
10/10/2019 Show to everybody Crocione 19.4 894 01:33:06 12.51 Km\h
08/10/2019 Show to everybody Afternoon Ride 15.9 594 01:10:13 13.59 Km\h
07/10/2019 Show to everybody Baro Nord 30.89 1291 02:25:36 12.73 Km\h
06/10/2019 Show to everybody Airolo con Oscar 7.52 345 00:25:35 17.64 Km\h
04/10/2019 Show to everybody Afternoon Ride 15.83 600 01:10:17 13.51 Km\h
03/10/2019 Show to everybody Tamarrata 27.26 668 02:05:57 12.99 Km\h
03/10/2019 Show to everybody Afternoon Ride 8.25 116 00:31:21 15.79 Km\h
30/09/2019 Show to everybody Crocione 19.28 880 01:31:21 12.66 Km\h
29/09/2019 Show to everybody Con Clara sul sentiero dei fermoni che tagliano le curve 7.46 172 00:40:29 11.06 Km\h
27/09/2019 Show to everybody Gries 24.52 418 02:00:46 12.18 Km\h
26/09/2019 Show to everybody Crocione 19.38 883 01:36:46 12.02 Km\h
25/09/2019 Show to everybody San Lucio 38.12 1257 02:44:05 13.94 Km\h
24/09/2019 Show to everybody Throat of Lake 16.25 592 01:12:29 13.45 Km\h
23/09/2019 Show to everybody Föhn brutale 18.91 896 01:36:15 11.79 Km\h
21/09/2019 Show to everybody Carona 35.73 816 01:32:06 23.28 Km\h
21/09/2019 Show to everybody Carona 35.73 816 01:32:06 23.28 Km\h
20/09/2019 Show to everybody Crocione 19.38 903 01:32:57 12.51 Km\h
19/09/2019 Show to everybody Gola di Lago 16.02 589 01:12:35 13.25 Km\h
18/09/2019 Show to everybody Maighelspass 30.68 1109 02:57:38 10.36 Km\h
16/09/2019 Show to everybody Griessee 25.03 423 02:04:17 12.09 Km\h
13/09/2019 Show to everybody Tamarrata mistica 18.67 383 01:36:28 11.61 Km\h
13/09/2019 Show to everybody Afternoon Ride 13.38 222 00:52:54 15.18 Km\h
12/09/2019 Show to everybody Gola di lago 16.08 575 01:12:52 13.24 Km\h
10/09/2019 Show to everybody San Lucio 38.13 1255 02:48:08 13.61 Km\h
09/09/2019 Show to everybody Crocione 19.63 878 01:41:18 11.63 Km\h
07/09/2019 Show to everybody Tamarrata Alta Torre 23.99 493 01:43:20 13.93 Km\h
07/09/2019 Show to everybody Morning Ride 18.72 213 00:58:54 19.07 Km\h
06/09/2019 Show to everybody Rinfreschezza! 16.1 573 01:15:34 12.79 Km\h
04/09/2019 Show to everybody Crocione Ritmo 18.67 896 01:36:21 11.62 Km\h
04/09/2019 Show to everybody Crocione Ritmo 18.67 896 01:36:21 11.62 Km\h
03/09/2019 Show to everybody Tamarrata Mega Torre 24.12 481 01:45:14 13.75 Km\h
03/09/2019 Show to everybody Afternoon Ride 8 10 00:27:03 17.74 Km\h
03/09/2019 Show to everybody Lunch Ride 19.89 218 01:04:18 18.56 Km\h
02/09/2019 Show to everybody Traversata Alta Torre 37.61 1185 02:49:28 13.31 Km\h
02/09/2019 Show to everybody Evening Ride 8.24 40 00:23:52 20.73 Km\h
31/08/2019 Show to everybody Terza discesa 7.83 7 00:33:16 14.12 Km\h
30/08/2019 Show to everybody Very early bird 30.45 860 02:09:26 14.11 Km\h
29/08/2019 Show to everybody Val delle Mine 30.03 742 02:05:35 14.35 Km\h
28/08/2019 Show to everybody Giretto prima del bike Park 30.36 862 02:01:34 14.98 Km\h
26/08/2019 Show to everybody Gola di Lago 16.35 546 01:11:55 13.64 Km\h
26/08/2019 Show to everybody photoshooting 8.81 187 01:00:40 8.71 Km\h
25/08/2019 Show to everybody Valcolla 43.45 959 01:48:47 23.96 Km\h
23/08/2019 Show to everybody Traversata superlavata 38.36 1245 02:57:57 12.94 Km\h
22/08/2019 Show to everybody Crocione con Axel 10.54 233 00:59:52 10.56 Km\h
21/08/2019 Show to everybody San Lucio 38.54 1170 02:46:30 13.89 Km\h
20/08/2019 Show to everybody Crocione 19.15 877 01:37:15 11.82 Km\h
18/08/2019 Show to everybody Carona 35.79 790 01:37:04 22.12 Km\h
17/08/2019 Show to everybody Tamarrata 24.03 481 01:46:26 13.55 Km\h
17/08/2019 Show to everybody Morning Ride 18.78 221 01:01:23 18.36 Km\h
15/08/2019 Show to everybody Passo del poco Sole 24.34 525 02:15:18 10.79 Km\h
14/08/2019 Show to everybody Crocione Super Bubba 19.17 867 01:31:28 12.57 Km\h
14/08/2019 Show to everybody Repeat 6.97 32 00:41:37 10.05 Km\h
13/08/2019 Show to everybody Tamarrata dopo la grandine di ieri 24.41 527 01:56:43 12.55 Km\h
13/08/2019 Show to everybody Borís con Oscar 8.04 50 00:50:48 9.5 Km\h
11/08/2019 Show to everybody Down the mountain 8.16 10 00:23:11 21.12 Km\h
08/08/2019 Show to everybody Crocione SB165 19.13 859 01:43:44 11.06 Km\h
06/08/2019 Show to everybody Alpe di Neggia con bitumiera 103.63 2414 04:41:34 22.08 Km\h
05/08/2019 Show to everybody Baro nord 31.78 1283 02:38:23 12.04 Km\h
04/08/2019 Show to everybody Malcantone 29.18 875 01:21:12 21.56 Km\h
03/08/2019 Show to everybody Tamarrata 24.1 486 01:43:07 14.02 Km\h
03/08/2019 Show to everybody Morning Ride 18.83 216 00:58:20 19.37 Km\h
31/07/2019 Show to everybody Valcolla 36.83 984 01:38:19 22.48 Km\h
31/07/2019 Show to everybody Valcolla 36.83 984 01:38:19 22.48 Km\h
30/07/2019 Show to everybody Tamarrata 24.47 475 01:49:34 13.4 Km\h
30/07/2019 Show to everybody Morning Ride 19.02 188 00:54:21 20.99 Km\h
29/07/2019 Show to everybody Davrosio devastato per gli imbranati 19.75 906 01:46:32 11.12 Km\h
28/07/2019 Show to everybody Freschezza 23.48 737 01:33:37 15.05 Km\h
28/07/2019 Show to everybody In spiaggia con Oscar 15.77 334 01:12:20 13.08 Km\h
26/07/2019 Show to everybody Ripasso del Sole 24.21 494 01:58:02 12.31 Km\h
24/07/2019 Show to everybody Sauna 25.1 829 01:39:42 15.11 Km\h
23/07/2019 Show to everybody Passo del Sole 24.27 496 02:06:36 11.5 Km\h
22/07/2019 Show to everybody Tamarrata 24 478 01:45:35 13.64 Km\h
22/07/2019 Show to everybody Morning Ride 18.79 212 00:59:58 18.8 Km\h
17/07/2019 Show to everybody Prima dei merenderos 14.6 154 01:05:55 13.29 Km\h
16/07/2019 Show to everybody Col Rodella 529 5.23 0 00:27:10 11.55 Km\h
16/07/2019 Show to everybody Col Rodella 528 5.27 14 00:25:30 12.4 Km\h
16/07/2019 Show to everybody Kids ride 36.92 1950 02:12:46 16.69 Km\h
15/07/2019 Show to everybody Dal sole al fango con Axel e Oscar 55.76 3263 03:36:09 15.48 Km\h
11/07/2019 Show to everybody Ai piedi della Tofana 26.24 1070 02:35:04 10.15 Km\h
10/07/2019 Show to everybody Priceless 38.8 1194 03:14:30 11.97 Km\h
08/07/2019 Show to everybody Tamarrata 24.07 477 01:43:52 13.9 Km\h
08/07/2019 Show to everybody Morning Ride 18.73 215 00:59:55 18.75 Km\h
07/07/2019 Show to everybody Sunset ride + swim 30.22 834 01:48:33 16.7 Km\h
06/07/2019 Show to everybody Tamarrata Mezzer II 23.37 477 01:49:04 12.86 Km\h
06/07/2019 Show to everybody Morning Ride 18.78 213 00:57:53 19.47 Km\h
05/07/2019 Show to everybody Tamarrata Mezzer 23.46 478 01:47:15 13.12 Km\h
05/07/2019 Show to everybody Morning Ride 18.08 228 01:01:37 17.61 Km\h
03/07/2019 Show to everybody San Bernardino 33.59 555 02:34:38 13.03 Km\h
02/07/2019 Show to everybody Crocione sotto il solleone 19.43 866 01:37:26 11.96 Km\h
01/07/2019 Show to everybody Il fresco del Malcantone 29.15 855 01:30:02 19.43 Km\h
30/06/2019 Show to everybody tamarrata 23.72 475 01:47:26 13.25 Km\h
30/06/2019 Show to everybody Morning 18.73 205 01:00:45 18.5 Km\h
29/06/2019 Show to everybody No trail for dry feet - passo del Sole 24.32 494 02:21:32 10.31 Km\h
27/06/2019 Show to everybody Afternoon Ride 7.64 61 00:29:49 15.36 Km\h
27/06/2019 Show to everybody Lunch Ride 7.54 61 00:32:28 13.94 Km\h
27/06/2019 Show to everybody Lunch Ride 4.18 15 00:12:33 20 Km\h
26/06/2019 Show to everybody Not so secret trail 13.33 520 01:12:01 11.1 Km\h
26/06/2019 Show to everybody Afternoon Ride 5.96 9 00:17:32 20.4 Km\h
25/06/2019 Show to everybody Lunch Ride 7.11 0 00:27:29 15.52 Km\h
25/06/2019 Show to everybody Paganella assaggio 7.65 3 00:28:15 16.25 Km\h
25/06/2019 Show to everybody Lunch Ride 5.65 19 00:17:56 18.9 Km\h
24/06/2019 Show to everybody Afternoon Ride 15.55 566 01:15:01 12.44 Km\h
23/06/2019 Show to everybody Traversata completa 56.64 1714 04:23:18 12.91 Km\h
19/06/2019 Show to everybody Baro Nord 30.99 1264 02:32:43 12.17 Km\h
17/06/2019 Show to everybody Crocione duello con bitumaro 19.4 876 01:34:10 12.36 Km\h
16/06/2019 Show to everybody Tamarrata 23.93 524 01:51:11 12.91 Km\h
16/06/2019 Show to everybody Morning Ride 18.15 226 01:01:53 17.6 Km\h
15/06/2019 Show to everybody Arosio 23.86 756 01:44:16 13.73 Km\h
13/06/2019 Show to everybody Matajur 25.64 679 02:36:22 9.84 Km\h
12/06/2019 Show to everybody Afternoon Ride 9.09 267 00:51:46 10.54 Km\h
12/06/2019 Show to everybody Lost in Slovenia 14.3 561 01:35:34 8.98 Km\h
11/06/2019 Show to everybody Sile Piave 60.05 72 02:23:36 25.09 Km\h
09/06/2019 Show to everybody Vai Vincè! 20.47 653 01:54:15 10.75 Km\h
08/06/2019 Show to everybody Afternoon Ride 18.76 220 00:56:46 19.83 Km\h
08/06/2019 Show to everybody Tamarrata 23.69 518 01:46:46 13.31 Km\h
07/06/2019 Show to everybody Girett 25.4 1025 02:00:32 12.64 Km\h
07/06/2019 Show to everybody Afternoon Ride 8.24 60 00:23:42 20.86 Km\h
04/06/2019 Show to everybody Carbon trail 24.8 1246 02:17:59 10.79 Km\h
03/06/2019 Show to everybody Baro Nord 31.15 1276 02:32:17 12.27 Km\h
31/05/2019 Show to everybody Supertraversata 42.29 1572 03:35:51 11.76 Km\h
30/05/2019 Show to everybody Prima Tamarrata 2019 24.28 528 01:50:46 13.15 Km\h
30/05/2019 Show to everybody Morning Ride 17.95 232 01:03:16 17.03 Km\h
29/05/2019 Show to everybody Doppietta del mercoledì 26.17 1055 02:04:48 12.58 Km\h
29/05/2019 Show to everybody Evening Ride 8.1 56 00:20:44 23.45 Km\h
28/05/2019 Show to everybody ARC8 13.71 601 01:10:25 11.68 Km\h
27/05/2019 Show to everybody Umidità 19.39 900 01:37:52 11.89 Km\h
24/05/2019 Show to everybody Doppietta del venerdì 26.65 1067 02:13:23 11.99 Km\h
23/05/2019 Show to everybody Supertraversata: 26km non stop Singletrack 41.32 1561 03:33:57 11.59 Km\h
22/05/2019 Show to everybody Val delle bolle 17.39 597 01:47:30 9.71 Km\h
21/05/2019 Show to everybody Traversata del martedì 41.49 1413 03:16:18 12.68 Km\h
20/05/2019 Show to everybody Nuvole del Crocione 19.37 905 01:32:40 12.54 Km\h
17/05/2019 Show to everybody Redde prima e durante la pioggia 15.33 659 01:21:26 11.29 Km\h
16/05/2019 Show to everybody Crocione 19.37 909 01:34:03 12.36 Km\h
15/05/2019 Show to everybody Baro nord 31.41 1311 02:37:10 11.99 Km\h
14/05/2019 Show to everybody Traversata XC 39.11 1203 02:45:27 14.18 Km\h
13/05/2019 Show to everybody Stanchezza 16.65 593 01:11:43 13.93 Km\h
10/05/2019 Show to everybody San Lucio/ eliminazione tossine 34.93 1254 02:42:43 12.88 Km\h
10/05/2019 Show to everybody Lunch Ride 6.48 206 00:25:40 15.15 Km\h
09/05/2019 Show to everybody Un saluto ai spostacespugli 19.43 912 01:37:44 11.93 Km\h
07/05/2019 Show to everybody Afternoon Ride 8.29 177 00:27:56 17.81 Km\h
07/05/2019 Show to everybody San Lucio + Baro nord 40.13 1410 03:10:37 12.63 Km\h
06/05/2019 Show to everybody Antivento 16.03 577 01:13:13 13.14 Km\h
04/05/2019 Show to everybody Cademario 25.61 884 01:46:33 14.42 Km\h
02/05/2019 Show to everybody Tovo 13.91 339 01:10:16 11.88 Km\h
01/05/2019 Show to everybody Camera con vista 8.06 76 00:38:58 12.42 Km\h
01/05/2019 Show to everybody Afternoon Ride 3.76 90 00:20:00 11.29 Km\h
30/04/2019 Show to everybody Zipp vs cb 2 13.17 590 01:22:13 9.61 Km\h
30/04/2019 Show to everybody Zipp vs cb 1 8.82 381 00:42:43 12.39 Km\h
30/04/2019 Show to everybody End of the day 8.06 58 00:20:30 23.6 Km\h
30/04/2019 Show to everybody Cari frati 1.3 212 00:02:29 31.45 Km\h
30/04/2019 Show to everybody Zipp vs cb 1 8.82 381 00:42:43 12.39 Km\h
29/04/2019 Show to everybody Girovagando 18.82 758 01:31:31 12.34 Km\h
29/04/2019 Show to everybody Test 2 5.86 166 00:24:04 14.61 Km\h
28/04/2019 Show to everybody Ex albero fulminato 34.56 1352 02:36:54 13.22 Km\h
27/04/2019 Show to everybody Morning quickie 25.17 853 01:40:31 15.02 Km\h
25/04/2019 Show to everybody Crocione uggioso 19.43 907 01:37:51 11.91 Km\h
23/04/2019 Show to everybody Uscita mistica 14.02 601 01:08:19 12.31 Km\h
23/04/2019 Show to everybody Afternoon Ride 8.15 162 00:29:53 16.37 Km\h
22/04/2019 Show to everybody Alpe Agra kids ride 14.61 365 01:24:41 10.35 Km\h
20/04/2019 Show to everybody Collina d’oro kids ride 13.74 380 01:08:37 12.02 Km\h
20/04/2019 Show to everybody Scampoli d’estate 25.1 824 01:37:50 15.39 Km\h
19/04/2019 Show to everybody Ricrocione 19.95 976 01:35:39 12.52 Km\h
19/04/2019 Show to everybody Afternoon Ride 8.24 108 00:22:28 21.99 Km\h
18/04/2019 Show to everybody Crocione del giovedì prepasquale 19.87 904 01:33:30 12.75 Km\h
17/04/2019 Show to everybody Doppietta del mercoledì 26.65 1065 02:04:13 12.87 Km\h
16/04/2019 Show to everybody Valcolla 31.22 1021 01:33:15 20.09 Km\h
15/04/2019 Show to everybody Maxxis exo + RIP 28.18 1070 02:03:36 13.68 Km\h
12/04/2019 Show to everybody Afternoon Ride 13.93 606 01:02:41 13.33 Km\h
10/04/2019 Show to everybody Compliance 19.28 912 01:34:01 12.3 Km\h
09/04/2019 Show to everybody Pole Machine 17.85 582 01:26:05 12.44 Km\h
08/04/2019 Show to everybody Crocione AXS 18.84 891 01:32:44 12.19 Km\h
05/04/2019 Show to everybody Crocione ri-neve 18.85 912 01:31:34 12.35 Km\h
02/04/2019 Show to everybody Prima della pioggia 19.22 909 01:30:10 12.79 Km\h
01/04/2019 Show to everybody 8 Bar 32.51 1343 02:30:04 13 Km\h
31/03/2019 Show to everybody Arbostora 30.9 723 01:40:39 18.42 Km\h
29/03/2019 Show to everybody Crocione 19.39 922 01:29:25 13.01 Km\h
28/03/2019 Show to everybody Bastien I’m checking on you! 16.19 596 01:09:23 14 Km\h
25/03/2019 Show to everybody Rock and roll 2.6 2 00:10:50 14.4 Km\h
22/03/2019 Show to everybody Crocione express (testing CB new xc wheels) 18.58 882 01:26:49 12.84 Km\h
21/03/2019 Show to everybody Doppietta del giovedì 25.95 1058 02:00:58 12.87 Km\h
20/03/2019 Show to everybody Crocione 19.48 922 01:37:46 11.95 Km\h
19/03/2019 Show to everybody Arbostora 30.94 737 01:42:32 18.11 Km\h
18/03/2019 Show to everybody Doppietta sperimentale 22.83 926 02:02:49 11.15 Km\h
16/03/2019 Show to everybody XC 31.17 834 01:45:08 17.79 Km\h
14/03/2019 Show to everybody DNF 16.7 591 01:16:36 13.08 Km\h
13/03/2019 Show to everybody Ricrocione 19.27 917 01:37:16 11.88 Km\h
12/03/2019 Show to everybody Crocione ultimate 19.37 923 01:36:59 11.98 Km\h
11/03/2019 Show to everybody Gola 15.91 600 01:14:21 12.84 Km\h
10/03/2019 Show to everybody Après ski 31.13 745 01:53:33 16.45 Km\h
27/02/2019 Show to everybody Ricrocione 18.82 893 01:34:54 11.9 Km\h
26/02/2019 Show to everybody Crocione frozen Garmin 19.8 917 01:50:01 10.8 Km\h
25/02/2019 Show to everybody Crocione 19.36 900 01:34:48 12.26 Km\h
22/02/2019 Show to everybody The heat is on 30.84 711 01:54:03 16.23 Km\h
20/02/2019 Show to everybody Crocione 18.95 912 01:38:11 11.58 Km\h
19/02/2019 Show to everybody Vid 14.05 601 01:08:40 12.28 Km\h
18/02/2019 Show to everybody Crocione direttissima 17.97 903 01:33:18 11.56 Km\h
15/02/2019 Show to everybody La primavera bussa insistente 36.36 925 01:40:26 21.72 Km\h
14/02/2019 Show to everybody Stoll visit 15.31 672 01:12:11 12.73 Km\h
13/02/2019 Show to everybody Fun laps 14.23 676 01:14:43 11.43 Km\h
12/02/2019 Show to everybody Scampoli di primavera 14.45 665 01:16:12 11.38 Km\h
11/02/2019 Show to everybody Malcantone 29.35 927 01:28:24 19.92 Km\h
09/02/2019 Show to everybody .. e il settimo giorno Dio creò il divano 35.76 843 01:38:25 21.8 Km\h
08/02/2019 Show to everybody Suns out guns out 28.06 898 01:29:12 18.87 Km\h
07/02/2019 Show to everybody No sun no fun 24.36 649 01:12:47 20.08 Km\h
06/02/2019 Show to everybody Repeat 27.93 906 01:25:14 19.66 Km\h
05/02/2019 Show to everybody Valcolla 27.69 879 01:29:46 18.51 Km\h
04/02/2019 Show to everybody Neve, check the video 28 910 01:28:05 19.07 Km\h
03/02/2019 Show to everybody Tempo da Squali 36.03 928 01:35:52 22.55 Km\h
31/01/2019 Show to everybody Lunch Ride 16.2 602 01:23:05 11.7 Km\h
30/01/2019 Show to everybody Snowy trails 15.76 600 01:20:18 11.77 Km\h
29/01/2019 Show to everybody Photo ride 14.36 615 01:18:26 10.98 Km\h
28/01/2019 Show to everybody Two 9.13 420 00:47:54 11.44 Km\h
28/01/2019 Show to everybody One 8.95 365 00:44:53 11.96 Km\h
25/01/2019 Show to everybody Afternoon Ride 7.22 269 00:32:53 13.18 Km\h
25/01/2019 Show to everybody Lunch Ride 7.47 279 00:33:01 13.57 Km\h
24/01/2019 Show to everybody Scalpello 30.81 743 01:50:23 16.75 Km\h
23/01/2019 Show to everybody A prender fresco 16.2 619 01:14:57 12.97 Km\h
22/01/2019 Show to everybody Doppietta unplugged 25.91 1105 02:10:15 11.94 Km\h
21/01/2019 Show to everybody Video ride 14.46 610 01:10:53 12.24 Km\h
18/01/2019 Show to everybody Malcantone 29.47 982 01:34:33 18.7 Km\h
17/01/2019 Show to everybody Marco Toniolo [BDC]'s Meetup - Mountain Route 30.45 616 01:01:52 29.53 Km\h
16/01/2019 Show to everybody Doppietta del mercoledì 26.06 1071 02:08:27 12.17 Km\h
14/01/2019 Show to everybody Gola di Eolo 15.92 592 01:10:28 13.55 Km\h
13/01/2019 Show to everybody Miralago 36.09 841 01:39:16 21.81 Km\h
11/01/2019 Show to everybody Eolo mon amour 14.05 612 01:04:24 13.09 Km\h
10/01/2019 Show to everybody Afternoon Ride 16.02 591 01:17:56 12.33 Km\h
09/01/2019 Show to everybody Gola di vento 15.83 604 01:13:53 12.86 Km\h
08/01/2019 Show to everybody Giret 13.93 611 01:05:54 12.69 Km\h
07/01/2019 Show to everybody Vid 14.28 653 01:05:24 13.1 Km\h
06/01/2019 Show to everybody L’estate sta finendo 36.11 840 01:42:19 21.18 Km\h
04/01/2019 Show to everybody Niente vento alleluia 25.39 857 01:53:07 13.47 Km\h
03/01/2019 Show to everybody Video lap 10.64 278 00:44:00 14.51 Km\h
03/01/2019 Show to everybody Con Oscar e il vento 11.41 221 01:09:11 9.9 Km\h
31/12/2018 Show to everybody Bye bye 2018 30.9 733 01:49:35 16.92 Km\h
29/12/2018 Show to everybody 200.000 26.95 862 01:56:52 13.84 Km\h
28/12/2018 Show to everybody Crocione 19.54 903 01:46:03 11.06 Km\h
27/12/2018 Show to everybody Razzo  30.91 749 01:52:52 16.43 Km\h
22/12/2018 Show to everybody Frontina 30.92 766 02:00:25 15.41 Km\h
20/12/2018 Show to everybody Neve 15.63 623 01:30:44 10.34 Km\h
19/12/2018 Show to everybody London 36.84 808 01:14:28 29.69 Km\h
18/12/2018 Show to everybody Crociane invernale 14.44 617 01:12:26 11.96 Km\h
17/12/2018 Show to everybody Watopia 30.72 649 01:00:59 30.23 Km\h
14/12/2018 Show to everybody Doppietta rinfrescante 25.92 1168 01:45:07 14.79 Km\h
12/12/2018 Show to everybody San Lucio invernale 13.87 631 01:41:32 8.2 Km\h
10/12/2018 Show to everybody Capanna ginestra 14.3 605 01:11:41 11.97 Km\h
09/12/2018 Show to everybody Sgasata domenicale 13.71 621 01:05:10 12.62 Km\h
08/12/2018 Show to everybody Venticiêllo 23.66 759 01:39:01 14.34 Km\h
07/12/2018 Show to everybody Minicrocione sgasata 13.91 599 00:56:44 14.71 Km\h
05/12/2018 Show to everybody Crocione 19.13 906 01:38:21 11.67 Km\h
04/12/2018 Show to everybody Primavera 23.85 509 01:29:16 16.03 Km\h
03/12/2018 Show to everybody Crocione 19.23 902 01:37:49 11.8 Km\h
01/12/2018 Show to everybody Arosio 23.91 796 01:42:54 13.94 Km\h
29/11/2018 Show to everybody Valcolla gravel 33.24 968 01:47:40 18.52 Km\h
28/11/2018 Show to everybody Crocione 19.81 910 01:45:31 11.27 Km\h
27/11/2018 Show to everybody Il barone 23.34 747 01:42:46 13.63 Km\h
23/11/2018 Show to everybody NYC 36.52 488 01:04:29 33.98 Km\h
21/11/2018 Show to everybody NYC 34.23 470 01:00:24 34 Km\h
20/11/2018 Show to everybody Snow 24.67 720 01:55:56 12.77 Km\h
19/11/2018 Show to everybody Watopia 31.76 518 01:00:00 31.76 Km\h
18/11/2018 Show to everybody Sentiero sbarrato 24.18 553 01:29:01 16.3 Km\h
15/11/2018 Show to everybody Fuerteventura, Cofete 50.74 878 02:54:55 17.41 Km\h
14/11/2018 Show to everybody Fuerteventura north east 84.65 827 03:41:04 22.98 Km\h
13/11/2018 Show to everybody Fuerteventura nord 61.94 474 03:02:03 20.42 Km\h
09/11/2018 Show to everybody BorÌs 13.8 596 01:07:09 12.33 Km\h
08/11/2018 Show to everybody London 31.35 470 01:00:58 30.86 Km\h
07/11/2018 Show to everybody Ripausa pioggia 19.26 902 01:42:28 11.28 Km\h
05/11/2018 Show to everybody Pausa pioggia 19.3 902 01:41:26 11.42 Km\h
03/11/2018 Show to everybody Tentativo gravel 2/2 19.89 601 01:12:30 16.46 Km\h
03/11/2018 Show to everybody Tentativo gravel 1/2 19.2 240 00:51:14 22.49 Km\h
02/11/2018 Show to everybody NYC 33.56 516 01:00:29 33.29 Km\h
01/11/2018 Show to everybody NYC 36.62 489 01:05:05 33.76 Km\h
30/10/2018 Show to everybody The aftermath 15.73 450 01:25:41 11.02 Km\h
29/10/2018 Show to everybody NYC 32.79 406 01:01:04 32.22 Km\h
26/10/2018 Show to everybody Giretto prima del monsone 27.22 499 01:30:16 18.09 Km\h
25/10/2018 Show to everybody Monte Gradiccioli 27.58 663 02:27:38 11.21 Km\h
25/10/2018 Show to everybody Morning Ride 19.4 223 00:58:57 19.75 Km\h
24/10/2018 Show to everybody Föhnsturm 26.53 918 02:09:49 12.26 Km\h
24/10/2018 Show to everybody Afternoon Ride 8.19 55 00:23:48 20.65 Km\h
22/10/2018 Show to everybody Frecc 23.82 793 01:36:35 14.8 Km\h
19/10/2018 Show to everybody Furcletta 39.74 1538 04:10:23 9.52 Km\h
18/10/2018 Show to everybody Arbostora 30.91 723 01:45:00 17.66 Km\h
17/10/2018 Show to everybody Monte bar nord 31.19 1302 02:28:58 12.56 Km\h
17/10/2018 Show to everybody Morning Ride 9.4 170 00:35:05 16.08 Km\h
17/10/2018 Show to everybody Afternoon Ride 8.09 40 00:22:22 21.71 Km\h
16/10/2018 Show to everybody Congiuntivite vade retro! 23.76 775 01:35:02 15 Km\h
12/10/2018 Show to everybody Traversata + 40.11 1375 03:11:50 12.55 Km\h
10/10/2018 Show to everybody XC Ride 21.64 802 01:30:11 14.4 Km\h
09/10/2018 Show to everybody Fontane a secco 20.11 848 01:42:41 11.75 Km\h
08/10/2018 Show to everybody Tamarrata 23.84 526 01:48:53 13.14 Km\h
08/10/2018 Show to everybody Afternoon Ride 18.54 207 00:55:40 19.99 Km\h
05/10/2018 Show to everybody Lunch Ride 20.88 751 01:36:37 12.97 Km\h
04/10/2018 Show to everybody Monte bar nord 30.71 1252 02:27:37 12.48 Km\h
03/10/2018 Show to everybody Carbon trail 16.05 438 01:38:40 9.76 Km\h
02/10/2018 Show to everybody Doppietta del martedì 26 1044 02:00:51 12.91 Km\h
29/09/2018 Show to everybody Albero fulminato 23.46 728 01:44:23 13.49 Km\h
29/09/2018 Show to everybody Lunch Ride 4.69 49 00:13:52 20.27 Km\h
28/09/2018 Show to everybody Trail del venerdì 39.52 1306 02:59:29 13.21 Km\h
27/09/2018 Show to everybody Sgasatina del giovedì 22.06 716 01:29:30 14.79 Km\h
26/09/2018 Show to everybody Doppietta del giovedì 26.4 1158 02:02:48 12.9 Km\h
25/09/2018 Show to everybody Fresco 22.92 1116 02:00:28 11.41 Km\h
24/09/2018 Show to everybody Ipercondra 19.24 756 01:33:57 12.29 Km\h
21/09/2018 Show to everybody Neverending trail 39.8 1392 03:18:09 12.05 Km\h
20/09/2018 Show to everybody Doppietta del giovedì 27.8 1110 02:12:08 12.62 Km\h
19/09/2018 Show to everybody Cool down lap 11.31 403 00:48:34 13.97 Km\h
19/09/2018 Show to everybody Unno Dash missile 12.43 309 00:44:43 16.68 Km\h
18/09/2018 Show to everybody Morning Ride 23.53 731 01:36:37 14.61 Km\h
15/09/2018 Show to everybody Kids ride 8.41 178 00:54:00 9.35 Km\h
14/09/2018 Show to everybody Monte bar dietro 31.01 1237 02:29:43 12.43 Km\h
13/09/2018 Show to everybody Arosio 23.52 722 01:36:52 14.57 Km\h
12/09/2018 Show to everybody Carbon trail 25.99 781 02:29:57 10.4 Km\h
11/09/2018 Show to everybody Doppietta del martedì 25.92 1036 02:00:19 12.93 Km\h
10/09/2018 Show to everybody San Lucio 44.32 1392 03:23:40 13.06 Km\h
08/09/2018 Show to everybody Tamarrata 24.26 502 01:49:59 13.23 Km\h
08/09/2018 Show to everybody Morning Ride 18.69 214 00:58:08 19.29 Km\h
07/09/2018 Show to everybody Unno 26.32 1022 02:07:10 12.42 Km\h
06/09/2018 Show to everybody Morning Ride 23.52 732 01:34:52 14.88 Km\h
05/09/2018 Show to everybody Gries 24.37 366 02:00:51 12.1 Km\h
04/09/2018 Show to everybody Carona 35.96 811 01:37:58 22.03 Km\h
03/09/2018 Show to everybody Doppietta del lunedì 25.45 1015 02:01:58 12.52 Km\h
01/09/2018 Show to everybody Riscatto 23.63 740 01:35:35 14.84 Km\h
30/08/2018 Show to everybody Albero fulminato 24.15 723 01:46:16 13.64 Km\h
30/08/2018 Show to everybody Morning Ride 4.7 48 00:13:59 20.18 Km\h
29/08/2018 Show to everybody Morning Quickie 12.01 200 00:45:25 15.86 Km\h
29/08/2018 Show to everybody Morning Ride 4.76 48 00:14:51 19.25 Km\h
29/08/2018 Show to everybody Picnic & trails with Oscar 14.88 277 01:29:52 9.94 Km\h
29/08/2018 Show to everybody Picnic & trails with Oscar 14.88 277 01:29:52 9.94 Km\h
28/08/2018 Show to everybody Tamarrata 23.27 481 01:47:01 13.04 Km\h
28/08/2018 Show to everybody Morning Ride 18.64 212 00:58:13 19.21 Km\h
27/08/2018 Show to everybody Hero of the day 24.87 752 01:37:54 15.24 Km\h
26/08/2018 Show to everybody Goodbye canicola 23.54 722 01:29:55 15.71 Km\h
25/08/2018 Show to everybody Speed test 36.74 870 02:13:05 16.56 Km\h
24/08/2018 Show to everybody Bulldozer 24.96 980 01:55:58 12.91 Km\h
22/08/2018 Show to everybody Tamaro armpump 19.19 401 01:34:39 12.17 Km\h
21/08/2018 Show to everybody San Lucio 38.94 1160 02:42:34 14.37 Km\h
20/08/2018 Show to everybody Lunch Ride 20.14 569 01:29:36 13.49 Km\h
19/08/2018 Show to everybody Arbostora 31.18 700 01:44:14 17.95 Km\h
17/08/2018 Show to everybody Baro 47.61 1654 03:27:28 13.77 Km\h
16/08/2018 Show to everybody Tamarrata molto affilata 23.6 523 01:47:17 13.2 Km\h
16/08/2018 Show to everybody Morning Ride 18.68 216 00:59:29 18.84 Km\h
15/08/2018 Show to everybody Kids ride 23.98 397 02:00:18 11.96 Km\h
14/08/2018 Show to everybody Valcolla 44.08 960 01:55:24 22.92 Km\h
13/08/2018 Show to everybody Morning shower 23.85 762 01:37:50 14.63 Km\h
11/08/2018 Show to everybody San lucio 49.88 1469 03:44:40 13.32 Km\h
11/08/2018 Show to everybody Evening Ride 8.13 39 00:23:20 20.9 Km\h
09/08/2018 Show to everybody Alpe bolla 25.33 822 02:01:22 12.52 Km\h
08/08/2018 Show to everybody Plaine Morte 35.74 190 02:54:06 12.32 Km\h
07/08/2018 Show to everybody Carona 36.09 795 01:35:11 22.75 Km\h
05/08/2018 Show to everybody Tamarrata 24.14 476 01:47:13 13.51 Km\h
05/08/2018 Show to everybody Morning Ride 18.95 205 00:59:16 19.18 Km\h
04/08/2018 Show to everybody Promontorio della paura 43.13 1199 02:55:35 14.74 Km\h
03/08/2018 Show to everybody Tamarrata 24.09 475 01:53:31 12.73 Km\h
03/08/2018 Show to everybody Morning Ride 18.67 203 00:59:30 18.82 Km\h
31/07/2018 Show to everybody Canicola 61.65 298 02:14:17 27.55 Km\h
30/07/2018 Show to everybody San Lucio 58.02 1512 04:26:00 13.09 Km\h
28/07/2018 Show to everybody Back in business 30.81 699 01:45:25 17.54 Km\h
24/07/2018 Show to everybody Lio Piccolo 62.34 33 02:15:20 27.64 Km\h
23/07/2018 Show to everybody Sile-Piave gravel 130.09 92 04:48:09 27.09 Km\h
22/07/2018 Show to everybody Quarto d’Altino 63.43 29 02:17:50 27.61 Km\h
21/07/2018 Show to everybody Fossalta 68.06 58 02:31:21 26.98 Km\h
20/07/2018 Show to everybody Powder 52.31 21 01:49:19 28.71 Km\h
19/07/2018 Show to everybody Roots 58.44 41 02:09:31 27.07 Km\h
18/07/2018 Show to everybody Laguna 50.15 21 01:53:11 26.59 Km\h
17/07/2018 Show to everybody Relax 29.97 8 01:12:08 24.93 Km\h
16/07/2018 Show to everybody Piave 2 46.33 38 01:37:34 28.49 Km\h
15/07/2018 Show to everybody Piave 46.35 34 01:39:44 27.88 Km\h
14/07/2018 Show to everybody Dust 41.15 24 01:27:54 28.09 Km\h
13/07/2018 Show to everybody Laguna del Mort 59.1 47 02:22:21 24.91 Km\h
12/07/2018 Show to everybody Doppeldecker Attacke! 46.73 33 01:39:49 28.09 Km\h
10/07/2018 Show to everybody Crocione 37.13 1224 02:36:20 14.25 Km\h
08/07/2018 Show to everybody Not missing eurobike 16.25 431 01:45:33 9.24 Km\h
07/07/2018 Show to everybody Passo del Sole 24.6 518 02:01:24 12.16 Km\h
06/07/2018 Show to everybody Morning Ride 18.56 203 00:58:55 18.9 Km\h
06/07/2018 Show to everybody Tamarrata felciata 23.47 487 01:46:18 13.25 Km\h
05/07/2018 Show to everybody disco storto 29.01 797 01:56:41 14.92 Km\h
04/07/2018 Show to everybody Gola di Lago 33.41 916 02:15:25 14.8 Km\h
02/07/2018 Show to everybody Afternoon Ride 4.51 0 00:10:18 26.29 Km\h
02/07/2018 Show to everybody Afternoon Ride 4.55 0 00:10:13 26.74 Km\h
02/07/2018 Show to everybody Afternoon Ride 3.99 0 00:11:30 20.79 Km\h
02/07/2018 Show to everybody Afternoon Ride 10.06 15 00:29:21 20.56 Km\h
02/07/2018 Show to everybody Lunch Ride 7.98 0 00:20:23 23.49 Km\h
02/07/2018 Show to everybody Lunch Ride 8.64 5 00:25:43 20.16 Km\h
01/07/2018 Show to everybody Bonus Track II 11.12 25 00:36:11 18.44 Km\h
01/07/2018 Show to everybody Suvretta pass 45.83 963 03:32:25 12.94 Km\h
30/06/2018 Show to everybody Bonus track 11.6 24 00:39:06 17.8 Km\h
30/06/2018 Show to everybody Mini transrezia 90.15 1682 05:45:26 15.66 Km\h
28/06/2018 Show to everybody Cantonill + Bovarina 34.34 1634 03:29:16 9.84 Km\h
27/06/2018 Show to everybody Nuovo allenamento 30.91 705 01:48:36 17.08 Km\h
26/06/2018 Show to everybody Passo del sole 24.57 516 02:20:03 10.53 Km\h
25/06/2018 Show to everybody Matro 39.69 1519 02:57:20 13.43 Km\h
25/06/2018 Show to everybody Night Ride 8.74 41 00:26:00 20.17 Km\h
24/06/2018 Show to everybody Tamarrata 24.02 491 01:52:40 12.79 Km\h
24/06/2018 Show to everybody Morning Ride 18.69 216 01:00:52 18.42 Km\h
23/06/2018 Show to everybody 8 Bar 49.09 1536 03:30:35 13.99 Km\h
22/06/2018 Show to everybody Tamarrata 23.5 485 01:52:43 12.51 Km\h
22/06/2018 Show to everybody Carbon Trail 26.02 770 02:35:32 10.04 Km\h
22/06/2018 Show to everybody Morning Ride 19.34 202 01:05:19 17.77 Km\h
20/06/2018 Show to everybody Moosalp + Gspon 50.67 1608 04:51:03 10.45 Km\h
19/06/2018 Show to everybody Simplon Gondo 18.24 9 01:17:36 14.1 Km\h
19/06/2018 Show to everybody Stockalperweg 1 15.07 213 01:14:37 12.12 Km\h
18/06/2018 Show to everybody San Lucio 57.68 1576 03:59:26 14.45 Km\h
15/06/2018 Show to everybody Malvaglia 23 556 02:12:03 10.45 Km\h
14/06/2018 Show to everybody Tamarrata 24.35 525 01:54:41 12.74 Km\h
14/06/2018 Show to everybody Lunch Ride 19.46 228 00:59:30 19.63 Km\h
12/06/2018 Show to everybody 2 min before the thunderstorm 22.03 721 01:28:29 14.94 Km\h
11/06/2018 Show to everybody Brasato 30.6 781 01:58:49 15.45 Km\h
08/06/2018 Show to everybody Lunch Ride 6.07 224 00:31:14 11.66 Km\h
08/06/2018 Show to everybody Morning Ride 8 255 00:46:44 10.27 Km\h
08/06/2018 Show to everybody Morning Ride 6.32 180 00:34:51 10.89 Km\h
07/06/2018 Show to everybody Afternoon Ride 22.7 556 01:46:10 12.83 Km\h
04/06/2018 Show to everybody Afternoon Ride 27.93 488 01:29:11 18.79 Km\h
03/06/2018 Show to everybody Cademario 23.21 706 01:33:04 14.97 Km\h
01/06/2018 Show to everybody Traversata del venerdì 56.95 1523 04:00:58 14.18 Km\h
31/05/2018 Show to everybody Con Oscar 19.77 325 01:42:23 11.59 Km\h
30/05/2018 Show to everybody Tamarrata 23.5 488 01:53:09 12.46 Km\h
30/05/2018 Show to everybody Morning Ride 18.65 205 01:00:10 18.6 Km\h
28/05/2018 Show to everybody Arbostora del lunedì 30.6 717 01:43:34 17.73 Km\h
26/05/2018 Show to everybody Süda! 21.96 682 01:30:14 14.61 Km\h
25/05/2018 Show to everybody Pairolo san lucio 58.17 1678 04:22:58 13.27 Km\h
24/05/2018 Show to everybody First tamarrata of the year 24.06 486 01:51:00 13 Km\h
24/05/2018 Show to everybody Morning Ride 18.69 218 00:58:39 19.12 Km\h
22/05/2018 Show to everybody Prima della pioggia 22.04 693 01:29:20 14.8 Km\h
21/05/2018 Show to everybody Arbostora 30.7 723 02:00:15 15.32 Km\h
19/05/2018 Show to everybody Crocione 36.18 1074 02:31:10 14.36 Km\h
18/05/2018 Show to everybody Cannondale F-Si 17.46 448 01:16:03 13.77 Km\h
15/05/2018 Show to everybody Arbostora 30.82 725 01:48:47 17 Km\h
14/05/2018 Show to everybody Lunch Ride 21.99 702 01:29:51 14.69 Km\h
12/05/2018 Show to everybody Guida sul bagnato 23.53 745 01:42:46 13.74 Km\h
11/05/2018 Show to everybody San Lucio 57.83 1541 04:02:54 14.28 Km\h
08/05/2018 Show to everybody Valcolla trail marathon 70.9 2250 05:08:43 13.78 Km\h
06/05/2018 Show to everybody Estivo 27.76 635 01:37:01 17.17 Km\h
05/05/2018 Show to everybody San lucio con pit stop Chiesa 57.72 1536 04:07:37 13.99 Km\h
04/05/2018 Show to everybody Crocione 35.43 1063 02:20:50 15.09 Km\h
03/05/2018 Show to everybody Humidity 100% 30.7 731 01:53:02 16.3 Km\h
02/05/2018 Show to everybody Fermoni che modificate il sentiero: PROT!!!! 21.96 706 01:27:30 15.06 Km\h
30/04/2018 Show to everybody Cademario 22.08 699 01:27:05 15.22 Km\h
28/04/2018 Show to everybody Arbostora 30.73 717 01:48:17 17.02 Km\h
27/04/2018 Show to everybody Cademario 23.67 779 01:35:51 14.82 Km\h
26/04/2018 Show to everybody San Lucio 57.02 1532 04:05:31 13.94 Km\h
24/04/2018 Show to everybody Piandanazzo 46.06 1308 03:04:21 14.99 Km\h
23/04/2018 Show to everybody Arbostora 30.83 712 01:45:55 17.46 Km\h
21/04/2018 Show to everybody Canicola! 32.94 928 02:11:02 15.08 Km\h
19/04/2018 Show to everybody Albero fulminato 2018/1 36.53 1268 02:48:57 12.97 Km\h
18/04/2018 Show to everybody Contro la frivolezza 22.13 702 01:30:56 14.6 Km\h
17/04/2018 Show to everybody Cape fear 47 1232 02:53:51 16.22 Km\h
16/04/2018 Show to everybody Zi zuda 23.96 782 01:37:58 14.68 Km\h
14/04/2018 Show to everybody Quick-ie 22.23 708 01:29:11 14.95 Km\h
13/04/2018 Show to everybody Esplorazione 27.9 890 01:50:05 15.21 Km\h
12/04/2018 Show to everybody Before the rain is after the rain 24.57 801 01:59:16 12.36 Km\h
11/04/2018 Show to everybody After the rain is before the rain 33.43 815 01:56:40 17.19 Km\h
09/04/2018 Show to everybody Pausa pioggia 30.97 733 01:47:32 17.28 Km\h
07/04/2018 Show to everybody Apres Ski destroyed legs 30.1 787 01:55:45 15.61 Km\h
29/03/2018 Show to everybody Forza HC Lugano ride 'a 31.57 748 01:47:06 17.69 Km\h
27/03/2018 Show to everybody Malcantone 22.93 773 01:39:57 13.76 Km\h
26/03/2018 Show to everybody Uphill modus 35.16 997 02:10:43 16.14 Km\h
25/03/2018 Show to everybody Mini Crocione sveltina 30.54 802 01:49:53 16.67 Km\h
23/03/2018 Show to everybody Che bella la primavera 30.65 995 02:17:09 13.41 Km\h
22/03/2018 Show to everybody Doppietta 19.48 867 01:38:02 11.93 Km\h
20/03/2018 Show to everybody Afternoon Ride 30.95 758 01:47:44 17.24 Km\h
19/03/2018 Show to everybody 4wk FTP Booster Week 3 Day 1 - Progressive 11's 35.15 247 01:03:24 33.27 Km\h
17/03/2018 Show to everybody rain 30.55 518 01:03:49 28.72 Km\h
16/03/2018 Show to everybody Doppietta del Malcantone 36.54 1427 03:05:34 11.82 Km\h
14/03/2018 Show to everybody Morning Ride 20.81 773 01:16:18 16.37 Km\h
13/03/2018 Show to everybody Scampoli di primavera 20.75 767 01:37:15 12.8 Km\h
12/03/2018 Show to everybody Geheimwaffe 30.94 749 01:47:44 17.23 Km\h
09/03/2018 Show to everybody Afternoon Ride 22.58 576 01:38:52 13.7 Km\h
09/03/2018 Show to everybody Lunch Ride 13.22 468 00:48:40 16.3 Km\h
08/03/2018 Show to everybody So e zó 42.44 1266 02:56:18 14.44 Km\h
06/03/2018 Show to everybody 4wk FTP Booster Week 2 Day 7 - Max Aerobic declining 34.51 225 01:01:57 33.42 Km\h
06/03/2018 Show to everybody Morning Ride 6.47 60 00:16:45 23.17 Km\h
06/03/2018 Show to everybody Afternoon Ride 24.61 524 01:30:08 16.39 Km\h
06/03/2018 Show to everybody Lunch Activity 6.44 146 00:16:54 22.85 Km\h
05/03/2018 Show to everybody 4wk FTP Booster Week 2 Day 6 - Tempo with accelerations #2 34.88 289 01:00:33 34.56 Km\h
04/03/2018 Show to everybody 4wk FTP Booster Week 2 Day 5 - 40/20's #2 27.09 602 01:00:36 26.82 Km\h
03/03/2018 Show to everybody 4wk FTP Booster Week 2 Day 4 - Endurance 30.51 507 01:16:28 23.94 Km\h
02/03/2018 Show to everybody 4wk FTP Booster Week 2 Day 3 - Tempo with Finale! 27.77 603 01:01:40 27.02 Km\h
01/03/2018 Show to everybody 4wk FTP Booster Week 2 Day 2 - HIT 45sec #2 34.09 216 01:02:22 32.79 Km\h
28/02/2018 Show to everybody 4wk FTP Booster Week 2 Day 1 - HIT 80% FTP #2 34.06 169 01:00:06 34.01 Km\h
27/02/2018 Show to everybody Colder 32.22 934 01:56:32 16.59 Km\h
26/02/2018 Show to everybody Davrosio winter e-dition 34.13 1138 02:20:15 14.6 Km\h
24/02/2018 Show to everybody Borís 30.18 804 02:03:15 14.69 Km\h
23/02/2018 Show to everybody watching ice hockey 51.72 909 01:58:17 26.24 Km\h
22/02/2018 Show to everybody Grau und kalt 22.98 790 01:45:27 13.08 Km\h
21/02/2018 Show to everybody Morning Ride 30.47 480 01:17:58 23.45 Km\h
07/02/2018 Show to everybody I fanghi 18 510 01:30:16 11.96 Km\h
05/02/2018 Show to everybody Wet in Tuscany 17.97 559 01:37:42 11.03 Km\h
04/02/2018 Show to everybody 4wk FTP Booster Week 1 Day 3 - Tempo into Sprints 35.5 287 01:03:53 33.34 Km\h
03/02/2018 Show to everybody 4wk FTP Booster Week 1 Day 2 - HIT 45sec #1 27.24 592 01:06:42 24.5 Km\h
03/02/2018 Show to everybody 4wk FTP Booster Week 1 Day 2 - HIT 45sec #1 27.24 592 01:06:42 24.5 Km\h
02/02/2018 Show to everybody Test Direto. Divertente sto video game! 30.96 150 00:56:08 33.1 Km\h
31/01/2018 Show to everybody Giro del monte uggioso 31.2 507 01:14:13 25.22 Km\h
29/01/2018 Show to everybody Crocione invernale 31.85 951 02:02:11 15.64 Km\h
24/01/2018 Show to everybody Malcantone 29.32 940 01:26:42 20.29 Km\h
23/01/2018 Show to everybody Bello caldo 37.03 1162 02:25:47 15.24 Km\h
22/01/2018 Show to everybody Giro del monte 28.68 288 01:08:40 25.06 Km\h
21/01/2018 Show to everybody Arbostora 31.37 742 02:00:20 15.64 Km\h
20/01/2018 Show to everybody Bitumiera molto leggera in Valcolla 43.58 1027 01:53:16 23.09 Km\h
19/01/2018 Show to everybody Crocione invernale 34.08 1023 02:18:33 14.76 Km\h
17/01/2018 Show to everybody 5900 grams 36.26 868 01:41:39 21.4 Km\h
16/01/2018 Show to everybody Millino freschino 31.61 961 02:07:58 14.82 Km\h
11/01/2018 Show to everybody Back to Arosio 21.03 782 01:49:25 11.53 Km\h
11/01/2018 Show to everybody Lunch Activity 8.73 130 00:20:49 25.17 Km\h
11/01/2018 Show to everybody Morning Activity 8.61 260 00:21:34 23.96 Km\h
10/01/2018 Show to everybody Il zole esiste ancora 30.66 763 02:03:20 14.91 Km\h
08/01/2018 Show to everybody 2nd try 27.97 577 01:50:00 15.26 Km\h
08/01/2018 Show to everybody Boom 5.25 106 00:19:26 16.22 Km\h
07/01/2018 Show to everybody Corsetta 6.5 168 00:44:34 8.76 Km\h Ibis Ripley
05/01/2018 Show to everybody Afternoon Ride 27.17 602 01:48:59 14.96 Km\h
05/01/2018 Show to everybody Afternoon Ride 27.17 602 01:48:59 14.96 Km\h
03/01/2018 Show to everybody Corsetta 6.77 188 00:45:21 8.95 Km\h Altre bici test
02/01/2018 Show to everybody Föhn 25 760 01:49:37 13.68 Km\h
01/01/2018 Show to everybody 2018 33.37 341 01:30:47 22.05 Km\h
31/12/2017 Show to everybody Lugano deserta 23.57 718 01:40:34 14.06 Km\h
30/12/2017 Show to everybody Corsetta fra le renne 6.44 84 00:41:45 9.26 Km\h Altre bici test
27/12/2017 Show to everybody Corsetta coi troll 6.55 77 00:47:07 8.34 Km\h Focus Sam C
23/12/2017 Show to everybody Esperimenti chieseschi 22.48 645 01:37:09 13.89 Km\h
22/12/2017 Show to everybody Giro del monte 30.47 476 01:18:19 23.35 Km\h
21/12/2017 Show to everybody Solstizio d’inverno 22.2 635 01:41:02 13.18 Km\h
19/12/2017 Show to everybody Ipocondra 31.74 750 02:25:25 13.1 Km\h
18/12/2017 Show to everybody Gandria 25.47 781 01:57:52 12.97 Km\h
15/12/2017 Show to everybody Afternoon Ride 30.67 481 01:22:15 22.37 Km\h
14/12/2017 Show to everybody Crocione Ride & snowshoeing 33.44 1158 02:14:08 14.96 Km\h
12/12/2017 Show to everybody Neve marcia 24.27 397 01:14:25 19.56 Km\h
09/12/2017 Show to everybody Venticiello 32.27 894 02:16:08 14.22 Km\h
07/12/2017 Show to everybody Afternoon Ride 27.24 510 01:38:39 16.57 Km\h
05/12/2017 Show to everybody Cademario 20.99 786 01:40:59 12.47 Km\h
04/12/2017 Show to everybody Test Fox aria/molla 16.73 876 01:32:41 10.83 Km\h Ibis Ripley
02/12/2017 Show to everybody Ipocondra 33.45 886 02:14:35 14.91 Km\h
30/11/2017 Show to everybody Prima della neve? 20.95 784 01:38:43 12.73 Km\h
28/11/2017 Show to everybody Frigorifero ride 31.04 761 02:00:54 15.41 Km\h
27/11/2017 Show to everybody Sentieri gelati 20.85 789 01:37:39 12.81 Km\h
24/11/2017 Show to everybody Crocione prima del brüt 35.34 1099 02:24:50 14.64 Km\h
23/11/2017 Show to everybody Albero di Natale 23.55 777 01:38:57 14.28 Km\h
21/11/2017 Show to everybody Crocione 36.16 1091 02:25:36 14.9 Km\h
20/11/2017 Show to everybody Morning Activity 8.73 111 00:23:04 22.7 Km\h
20/11/2017 Show to everybody Morning Activity 8.9 241 00:23:13 23 Km\h
20/11/2017 Show to everybody Bosco luganese 21.02 780 01:36:05 13.13 Km\h
18/11/2017 Show to everybody Crocione 18.7 899 01:37:18 11.53 Km\h
17/11/2017 Show to everybody Ca’ de Mario 20.92 777 01:42:44 12.22 Km\h
16/11/2017 Show to everybody Doppietta del giovedì 24.52 1006 02:02:14 12.04 Km\h
15/11/2017 Show to everybody Crocione 23.23 983 01:55:38 12.05 Km\h
15/11/2017 Show to everybody Crocione 23.23 983 01:55:38 12.05 Km\h
14/11/2017 Show to everybody Afternoon Ride 30.79 738 01:51:35 16.56 Km\h
11/11/2017 Show to everybody Giro del monte 30.5 479 01:15:33 24.22 Km\h
10/11/2017 Show to everybody Doppietta del venerdì 41.81 1223 02:54:24 14.39 Km\h
09/11/2017 Show to everybody Umidità 30.86 750 02:09:47 14.27 Km\h
07/11/2017 Show to everybody Giro del lago dopo raffreddore 57.23 338 01:58:48 28.91 Km\h
31/10/2017 Show to everybody Doppietta del martedì 41.64 1186 02:39:34 15.66 Km\h
30/10/2017 Show to everybody Malcantone 29.11 911 01:26:57 20.09 Km\h
27/10/2017 Show to everybody San lucio föhnsturm 54.99 1380 03:42:09 14.85 Km\h
26/10/2017 Show to everybody Baretto 47.55 1331 03:11:52 14.87 Km\h
24/10/2017 Show to everybody San Lucio extended play 57.7 1740 04:18:03 13.42 Km\h
23/10/2017 Show to everybody Via col vento 35.95 837 01:38:40 21.86 Km\h
20/10/2017 Show to everybody Penisola 30.93 723 01:51:18 16.67 Km\h
19/10/2017 Show to everybody Tamarrata 23.38 493 01:54:31 12.25 Km\h
17/10/2017 Show to everybody RR 35.99 1067 01:59:34 18.06 Km\h
16/10/2017 Show to everybody Griespass con orgasmo autunnale 41.01 1480 03:40:46 11.15 Km\h
14/10/2017 Show to everybody Tamarrata 24.06 489 01:47:11 13.47 Km\h
14/10/2017 Show to everybody Lunch Ride 17.95 227 00:58:03 18.55 Km\h
13/10/2017 Show to everybody Gries 24.1 350 01:55:18 12.54 Km\h
11/10/2017 Show to everybody Fat burning 56.64 1694 03:17:50 17.18 Km\h
09/10/2017 Show to everybody Doppietta del lunedì 41.73 1172 02:39:47 15.67 Km\h
07/10/2017 Show to everybody Lunch Ride 17.92 229 00:55:16 19.46 Km\h
07/10/2017 Show to everybody Tamarrata 23.87 494 01:44:15 13.74 Km\h
06/10/2017 Show to everybody Vento da nord 35.98 827 01:34:42 22.8 Km\h
05/10/2017 Show to everybody Ma che bella giornata 30.81 729 01:56:10 15.91 Km\h
03/10/2017 Show to everybody Tamaro mistico 24.95 1360 01:43:02 14.53 Km\h
03/10/2017 Show to everybody Afternoon Ride 17.97 160 01:01:06 17.65 Km\h
02/10/2017 Show to everybody Doppietta uggiosa 41.49 1184 02:46:50 14.92 Km\h
29/09/2017 Show to everybody Grindelwald day 3 20.99 18 01:04:05 19.65 Km\h
28/09/2017 Show to everybody Lunch Ride 4.5 221 00:26:24 10.23 Km\h
28/09/2017 Show to everybody Lunch Ride 3.66 0 00:13:34 16.2 Km\h
28/09/2017 Show to everybody Grindelwald day 2 7.42 507 00:49:07 9.06 Km\h
28/09/2017 Show to everybody Grindelwald day 2 mattino 14.34 129 01:02:55 13.68 Km\h
27/09/2017 Show to everybody Grindelwald day 1 33.22 1494 03:23:43 9.78 Km\h
25/09/2017 Show to everybody Doppietta + del lunedì 48.07 1420 02:43:47 17.61 Km\h
24/09/2017 Show to everybody To the Swiss cup 32.43 693 01:58:41 16.4 Km\h
22/09/2017 Show to everybody Carbon trail 24.87 782 02:07:13 11.73 Km\h
20/09/2017 Show to everybody Una Tamarrata al giorno leva il medico di torno 24.19 515 01:50:34 13.13 Km\h
19/09/2017 Show to everybody Tamarrata 🌬 23.77 509 01:54:33 12.45 Km\h
19/09/2017 Show to everybody Controvento 18.83 351 01:09:57 16.15 Km\h
18/09/2017 Show to everybody Doppietta del lunedì 42.3 1212 02:51:35 14.79 Km\h
16/09/2017 Show to everybody ChEating 46.93 1540 02:47:13 16.84 Km\h
15/09/2017 Show to everybody Nuovo allenamento 23.71 508 01:53:09 12.57 Km\h
13/09/2017 Show to everybody Tamarrata 24.83 468 02:00:18 12.38 Km\h
11/09/2017 Show to everybody Doppietta del lunedì 41.45 1180 02:44:55 15.08 Km\h
08/09/2017 Show to everybody Valcolla 43.65 984 01:56:25 22.5 Km\h
07/09/2017 Show to everybody Tamarrata 23.81 521 01:52:47 12.67 Km\h
07/09/2017 Show to everybody Morning ride 18.1 211 00:59:52 18.14 Km\h
05/09/2017 Show to everybody Passo del Sole 24.83 510 01:51:03 13.42 Km\h
04/09/2017 Show to everybody Penisola 32.53 792 02:00:57 16.14 Km\h
03/09/2017 Show to everybody Malcantone 29 895 01:25:18 20.4 Km\h
01/09/2017 Show to everybody Detox 36.02 816 01:34:24 22.9 Km\h
28/08/2017 Show to everybody bottanega che calor! 31.23 701 01:52:12 16.7 Km\h
27/08/2017 Show to everybody Malcantone 29.12 870 01:16:12 22.93 Km\h
26/08/2017 Show to everybody Doppietta del sabato 41.62 1136 02:41:48 15.43 Km\h
24/08/2017 Show to everybody Picco dei Camosci 40.34 1192 03:31:20 11.45 Km\h
23/08/2017 Show to everybody Tamarrata 22.89 478 01:43:00 13.34 Km\h
23/08/2017 Show to everybody Morning Ride 17.96 221 01:06:37 16.18 Km\h
22/08/2017 Show to everybody Passo del sole 24.33 515 01:56:04 12.58 Km\h
21/08/2017 Show to everybody tamarrata 23.81 543 01:51:24 12.83 Km\h
21/08/2017 Show to everybody Morning ride 18.04 232 01:01:05 17.72 Km\h
20/08/2017 Show to everybody Malcantone mattutino 29.16 900 01:27:38 19.96 Km\h
20/08/2017 Show to everybody Con Oscar 19.26 293 01:49:08 10.59 Km\h
19/08/2017 Show to everybody Kids' ride 20.51 506 01:56:34 10.56 Km\h
18/08/2017 Show to everybody presto 18.03 206 01:00:16 17.95 Km\h
18/08/2017 Show to everybody Tamarrata 23.87 534 01:50:01 13.02 Km\h
17/08/2017 Show to everybody Crocione 36.05 1062 02:23:28 15.08 Km\h
16/08/2017 Show to everybody Carona 35.97 818 01:35:41 22.56 Km\h
15/08/2017 Show to everybody ... and back 9.41 207 00:50:47 11.12 Km\h
15/08/2017 Show to everybody To the beach 9.51 66 00:43:18 13.18 Km\h
14/08/2017 Show to everybody Tamaro con video 22.71 481 01:35:50 14.22 Km\h
14/08/2017 Show to everybody Morning Ride 17.98 221 01:10:22 15.33 Km\h
12/08/2017 Show to everybody Doppietta del sabato 43.17 1203 02:57:03 14.63 Km\h
10/08/2017 Show to everybody San Lucio Gravel 59.85 1469 03:09:26 18.96 Km\h
08/08/2017 Show to everybody Giret col Gesa e Silvio 29.8 725 01:48:36 16.47 Km\h
07/08/2017 Show to everybody Gries Pass 24.69 818 02:02:28 12.1 Km\h
05/08/2017 Show to everybody tamarrata 23.19 604 02:10:10 10.69 Km\h
05/08/2017 Show to everybody Early morning ride 18.11 175 00:54:40 19.88 Km\h
03/08/2017 Show to everybody Tremorgio 21.11 1168 02:20:00 9.05 Km\h
01/08/2017 Show to everybody Doppietta del ritorno sui monti 43.12 1194 02:48:30 15.36 Km\h
30/07/2017 Show to everybody Spruzzatina rinfrescante 46.58 18 01:50:25 25.31 Km\h
28/07/2017 Show to everybody Alla gravel-ricerca di via Toniolo 118.52 62 04:45:40 24.89 Km\h
27/07/2017 Show to everybody Bordesando 40.03 15 01:28:17 27.21 Km\h
26/07/2017 Show to everybody Gravel e granseole 38.91 14 01:25:21 27.35 Km\h
25/07/2017 Show to everybody Chiavica 41.22 19 01:30:19 27.38 Km\h
23/07/2017 Show to everybody Sgasatina con albero in mezzo 46.52 21 01:38:53 28.23 Km\h
21/07/2017 Show to everybody Polvere 41.72 14 01:27:54 28.48 Km\h
20/07/2017 Show to everybody Ragnatele 46.32 21 01:48:40 25.58 Km\h
17/07/2017 Show to everybody Lagunando 39.89 19 01:24:55 28.19 Km\h
16/07/2017 Show to everybody Sile + Piave gravel/trail 46.57 27 01:44:06 26.84 Km\h
15/07/2017 Show to everybody Argini 35.22 24 01:23:53 25.19 Km\h
13/07/2017 Show to everybody Morning Ride 29.64 30 01:10:42 25.16 Km\h
10/07/2017 Show to everybody Valcolla 43.7 969 01:57:28 22.32 Km\h
09/07/2017 Show to everybody 5 secondi al temporale 35.97 805 01:33:02 23.2 Km\h
07/07/2017 Show to everybody Rose 8 8.5 59 00:41:37 12.25 Km\h
07/07/2017 Show to everybody Rose 6 9.58 23 00:39:44 14.46 Km\h
07/07/2017 Show to everybody Rose 7 6.65 2 00:23:40 16.86 Km\h
07/07/2017 Show to everybody rose 5 10.65 428 00:57:58 11.02 Km\h
06/07/2017 Show to everybody Rose 4 7.27 170 00:40:52 10.68 Km\h
06/07/2017 Show to everybody Rose 2 9.34 16 00:37:17 15.03 Km\h
06/07/2017 Show to everybody Rose 3 9.53 242 00:33:19 17.17 Km\h
06/07/2017 Show to everybody Rose 1 6.16 112 00:30:52 11.98 Km\h
05/07/2017 Show to everybody Illhorn alternative 28.27 165 02:21:10 12.02 Km\h
05/07/2017 Show to everybody Morning ride 3.92 1 00:14:53 15.82 Km\h
05/07/2017 Show to everybody Noon ride 3.77 20 00:10:32 21.47 Km\h
05/07/2017 Show to everybody To the camping 3.64 159 00:18:04 12.08 Km\h
05/07/2017 Show to everybody Illhorn alternative 28.27 165 02:21:10 12.02 Km\h
05/07/2017 Show to everybody Noon ride 3.77 20 00:10:32 21.47 Km\h
04/07/2017 Show to everybody bec de bousson 45.65 2184 04:26:17 10.29 Km\h
04/07/2017 Show to everybody Drunken ride 3.63 158 00:18:57 11.5 Km\h
01/07/2017 Show to everybody To the pool 10.08 275 00:35:54 16.85 Km\h
01/07/2017 Show to everybody .... and back 10.79 172 00:31:38 20.46 Km\h
30/06/2017 Show to everybody Malcantón 59.96 1552 02:50:46 21.07 Km\h
29/06/2017 Show to everybody Carona + 44.74 989 01:57:15 22.89 Km\h
25/06/2017 Show to everybody Carona 35.96 807 01:42:12 21.11 Km\h
24/06/2017 Show to everybody To the pool 10.08 257 00:38:29 15.72 Km\h
23/06/2017 Show to everybody The whole luganata 93.73 3306 06:19:02 14.84 Km\h
21/06/2017 Show to everybody malvaglia 22.44 553 02:08:21 10.49 Km\h
20/06/2017 Show to everybody Doppietta del martedì + 1000m nuoto 44.73 1227 02:56:41 15.19 Km\h
19/06/2017 Show to everybody Tamarrata 26.32 480 02:06:30 12.48 Km\h
18/06/2017 Show to everybody Pairolo Bar 56.49 1700 03:58:48 14.19 Km\h
17/06/2017 Show to everybody Passo del Sole 24.17 506 01:40:31 14.42 Km\h
16/06/2017 Show to everybody Carona 35.82 788 01:37:13 22.11 Km\h
13/06/2017 Show to everybody Genius ride 30.95 1199 02:26:39 12.66 Km\h
12/06/2017 Show to everybody Afternoon Ride 4.41 0 00:15:27 17.11 Km\h
12/06/2017 Show to everybody Afternoon Ride 10.48 165 00:43:49 14.35 Km\h
09/06/2017 Show to everybody Tamarrata 23.49 489 01:47:37 13.1 Km\h
09/06/2017 Show to everybody Lunch Ride 18.78 233 01:04:14 17.54 Km\h
08/06/2017 Show to everybody Doppietta del giovedì 24.52 980 01:55:26 12.74 Km\h
07/06/2017 Show to everybody Carona 36.01 825 01:39:12 21.78 Km\h
02/06/2017 Show to everybody Tamarrata 22.74 478 01:38:48 13.81 Km\h
02/06/2017 Show to everybody Morning Ride 18.01 234 01:01:48 17.48 Km\h
01/06/2017 Show to everybody Valcolla 44.47 992 02:06:57 21.02 Km\h
31/05/2017 Show to everybody Tamarrata con Chris 25.9 476 02:01:08 12.83 Km\h
30/05/2017 Show to everybody How to lose 1 kg in 4 hours 58.18 1682 03:57:42 14.69 Km\h
29/05/2017 Show to everybody Doppietta del lunedì 43.92 1279 02:54:23 15.11 Km\h
27/05/2017 Show to everybody Route 66 53.09 1567 03:30:33 15.13 Km\h
26/05/2017 Show to everybody 36 tornantini per colazione 28.96 855 02:02:21 14.2 Km\h
24/05/2017 Show to everybody Tamaro Mezzovico 18.75 410 01:38:34 11.42 Km\h
23/05/2017 Show to everybody Primo Tamaro dell'anno 23.5 483 01:49:47 12.84 Km\h
23/05/2017 Show to everybody Morning Ride 18.73 234 01:03:38 17.66 Km\h
22/05/2017 Show to everybody San Lucio with the new Pike 60.22 1599 04:00:30 15.02 Km\h
20/05/2017 Show to everybody doppietta del sabato 43.22 1302 02:43:44 15.84 Km\h
18/05/2017 Show to everybody Arbostora 30.65 712 01:49:02 16.87 Km\h
17/05/2017 Show to everybody la bassa 17.56 598 01:33:32 11.26 Km\h
16/05/2017 Show to everybody Piandanazzo 29.3 1122 02:09:50 13.54 Km\h
15/05/2017 Show to everybody Problema tennico 58.8 1419 03:36:08 16.32 Km\h
13/05/2017 Show to everybody Doppietta del sabato 43.58 1307 02:56:30 14.82 Km\h
12/05/2017 Show to everybody Carona 35.92 839 01:39:08 21.74 Km\h
09/05/2017 Show to everybody crocione ventoso 18.66 932 01:41:09 11.07 Km\h
08/05/2017 Show to everybody Afternoon Ride 30.79 720 01:54:43 16.1 Km\h
05/05/2017 Show to everybody Girovagando 49.23 1620 03:28:40 14.15 Km\h
02/05/2017 Show to everybody Doppietta sotto la linea della neve 24.69 998 01:56:43 12.69 Km\h
30/04/2017 Show to everybody bocca dei fortini 35.16 1286 02:56:17 11.97 Km\h
29/04/2017 Show to everybody tremalzo 57 2119 04:32:05 12.57 Km\h
28/04/2017 Show to everybody escape from the festival 23.31 919 01:59:09 11.74 Km\h
24/04/2017 Show to everybody bosco che sa di bruciato 38.57 1341 03:10:24 12.15 Km\h
23/04/2017 Show to everybody end of the ski season 30.99 806 01:48:42 17.1 Km\h
13/04/2017 Show to everybody val vigezzo 27.21 1488 03:01:47 8.98 Km\h
12/04/2017 Show to everybody ceneri 2 8.33 4 00:25:43 19.42 Km\h
12/04/2017 Show to everybody ceneri 8.3 4 00:24:56 19.97 Km\h
12/04/2017 Show to everybody warm up 8.41 9 00:30:06 16.76 Km\h
11/04/2017 Show to everybody San Lucio 22.35 756 01:47:53 12.43 Km\h
10/04/2017 Show to everybody bocchetta di nava 7.83 342 00:56:22 8.34 Km\h
07/04/2017 Show to everybody alpe di neggia 28.77 1342 02:41:35 10.68 Km\h
06/04/2017 Show to everybody Stoll 22.68 782 01:42:46 13.24 Km\h
05/04/2017 Show to everybody nighride 21.26 765 01:44:05 12.26 Km\h
04/04/2017 Show to everybody Doppietta del martedì 24.72 981 01:55:57 12.79 Km\h
03/04/2017 Show to everybody san Lucio redux 23.03 782 01:53:18 12.2 Km\h
31/03/2017 Show to everybody crocione 18.76 929 01:40:46 11.17 Km\h
30/03/2017 Show to everybody San Lucio 59.18 1608 03:53:20 15.22 Km\h
28/03/2017 Show to everybody Sram 5 8.19 239 00:58:27 8.41 Km\h
28/03/2017 Show to everybody Sram 4 13.07 294 01:11:45 10.93 Km\h
27/03/2017 Show to everybody Sram 3 7.04 227 00:47:26 8.9 Km\h
27/03/2017 Show to everybody Sram 1 3.78 91 00:21:42 10.45 Km\h
27/03/2017 Show to everybody Sram 2 11.48 204 01:03:41 10.82 Km\h
25/03/2017 Show to everybody Crocione 40.87 1782 02:40:52 15.24 Km\h
20/03/2017 Show to everybody Doppietta del lunedì 24.74 996 01:52:25 13.2 Km\h
17/03/2017 Show to everybody Tubeless speed test 36.17 827 01:35:48 22.65 Km\h
16/03/2017 Show to everybody San Lucio | Disgelo 55.56 1479 04:04:10 13.65 Km\h
15/03/2017 Show to everybody Afternoon Ride 30.73 746 01:49:11 16.89 Km\h
14/03/2017 Show to everybody Crocione 18.62 883 01:34:20 11.84 Km\h
13/03/2017 Show to everybody Doppietta 25.18 1011 01:52:13 13.46 Km\h
11/03/2017 Show to everybody crocione 37.21 1123 02:32:20 14.65 Km\h
10/03/2017 Show to everybody Föhn Sturm 14.32 518 01:09:22 12.39 Km\h
09/03/2017 Show to everybody Stoll 2 12.08 77 00:47:43 15.19 Km\h
09/03/2017 Show to everybody Stoll bikes 13.7 527 01:06:20 12.39 Km\h
08/03/2017 Show to everybody Al contrario 37.08 847 01:38:00 22.7 Km\h
07/03/2017 Show to everybody Primavera 30.75 752 01:50:42 16.67 Km\h
05/03/2017 Show to everybody home sweet home 31.73 825 02:02:42 15.52 Km\h
24/02/2017 Show to everybody Carona 36.66 851 01:37:37 22.53 Km\h
23/02/2017 Show to everybody Giù 16.79 208 01:01:18 16.44 Km\h
22/02/2017 Show to everybody crocione 18.74 905 01:41:20 11.1 Km\h
18/02/2017 Show to everybody Samarathon day 3 59.34 655 02:49:04 21.06 Km\h
18/02/2017 Show to everybody Morning Ride 4.47 9 00:17:40 15.19 Km\h
17/02/2017 Show to everybody Samarathon day 2 81.95 976 04:01:18 20.38 Km\h
16/02/2017 Show to everybody Samarathon prologue 22.39 200 01:00:32 22.19 Km\h
16/02/2017 Show to everybody Lunch Ride 6.53 65 00:27:09 14.44 Km\h
14/02/2017 Show to everybody Giro del monte 30.57 470 01:14:26 24.64 Km\h
13/02/2017 Show to everybody XC 43.12 1300 02:42:20 15.94 Km\h
11/02/2017 Show to everybody Morning Ride 24.98 594 01:35:41 15.67 Km\h
09/02/2017 Show to everybody XC 30.85 779 01:47:33 17.21 Km\h
08/02/2017 Show to everybody Condra 13.85 532 01:11:11 11.67 Km\h
07/02/2017 Show to everybody crocione invernale + 19.13 854 01:34:32 12.14 Km\h
06/02/2017 Show to everybody Föhn 30.9 757 01:44:41 17.71 Km\h
02/02/2017 Show to everybody XT6 4.86 63 00:34:37 8.43 Km\h
31/01/2017 Show to everybody cacciatori 3.72 1 00:16:55 13.19 Km\h
31/01/2017 Show to everybody again 3.06 2 00:10:50 16.92 Km\h
31/01/2017 Show to everybody toboga 3.13 3 00:12:31 15.01 Km\h
31/01/2017 Show to everybody and again 3.01 2 00:11:56 15.16 Km\h
31/01/2017 Show to everybody canova 3.12 4 00:12:04 15.53 Km\h